Observation data for Sweetwater on 03/08/2018      Previous  Date  Next       Current Mesonet Observations  Soil Data  Daily Summary Page  Observations in Plain Language
KSW1 080600Z 14010KT 08/M05 A3021 RMK A01 T00831051  RH  038%=      5-min Rain = 0
KSW1 080601Z 13010KT 08/M05 A3021 RMK A01 T00831051  RH  038%=      5-min Rain = 0
KSW1 080602Z 14011KT 08/M05 A3021 RMK A01 T00831052  RH  038%=      5-min Rain = 0
KSW1 080603Z 14010KT 08/M05 A3021 RMK A01 T00841052  RH  038%=      5-min Rain = 0
KSW1 080604Z 13010KT 09/M05 A3021 RMK A01 T00851052  RH  037%=      5-min Rain = 0
KSW1 080605Z 13010KT 09/M05 A3021 RMK A01 T00851053  RH  037%=      5-min Rain = 0
KSW1 080606Z 13010KT 09/M05 A3022 RMK A01 T00851054  RH  037%=      5-min Rain = 0
KSW1 080607Z 14009KT 09/M05 A3022 RMK A01 T00851054  RH  037%=      5-min Rain = 0
KSW1 080608Z 13010KT 09/M05 A3022 RMK A01 T00851054  RH  037%=      5-min Rain = 0
KSW1 080609Z 13009KT 09/M06 A3022 RMK A01 T00861055  RH  036%=      5-min Rain = 0
KSW1 080610Z 13008KT 09/M06 A3022 RMK A01 T00861055  RH  036%=      5-min Rain = 0
KSW1 080611Z 13010KT 09/M06 A3022 RMK A01 T00861055  RH  036%=      5-min Rain = 0
KSW1 080612Z 13009KT 09/M06 A3022 RMK A01 T00861056  RH  036%=      5-min Rain = 0
KSW1 080613Z 13009KT 09/M06 A3022 RMK A01 T00861056  RH  036%=      5-min Rain = 0
KSW1 080614Z 13009KT 09/M06 A3022 RMK A01 T00861055  RH  036%=      5-min Rain = 0
KSW1 080615Z 13010KT 09/M06 A3021 RMK A01 T00861056  RH  036%=      5-min Rain = 0
KSW1 080616Z 13010KT 09/M06 A3021 RMK A01 T00861056  RH  036%=      5-min Rain = 0
KSW1 080617Z 13011KT 09/M06 A3021 RMK A01 T00861056  RH  036%=      5-min Rain = 0
KSW1 080618Z 13010KT 09/M06 A3021 RMK A01 T00861057  RH  036%=      5-min Rain = 0
KSW1 080619Z 13010KT 09/M06 A3021 RMK A01 T00861057  RH  036%=      5-min Rain = 0
KSW1 080620Z 14009KT 09/M06 A3021 RMK A01 T00861057  RH  036%=      5-min Rain = 0
KSW1 080621Z 13009KT 09/M06 A3021 RMK A01 T00871056  RH  036%=      5-min Rain = 0
KSW1 080622Z 13010KT 09/M06 A3021 RMK A01 T00861055  RH  036%=      5-min Rain = 0
KSW1 080623Z 13010KT 09/M05 A3021 RMK A01 T00851054  RH  037%=      5-min Rain = 0
KSW1 080624Z 14011KT 09/M05 A3021 RMK A01 T00851054  RH  037%=      5-min Rain = 0
KSW1 080625Z 13010KT 09/M05 A3021 RMK A01 T00851054  RH  037%=      5-min Rain = 0
KSW1 080626Z 13010KT 09/M05 A3021 RMK A01 T00851054  RH  037%=      5-min Rain = 0
KSW1 080627Z 13010KT 08/M05 A3021 RMK A01 T00841054  RH  037%=      5-min Rain = 0
KSW1 080628Z 13010KT 08/M05 A3021 RMK A01 T00841054  RH  037%=      5-min Rain = 0
KSW1 080629Z 13010KT 08/M05 A3021 RMK A01 T00841054  RH  037%=      5-min Rain = 0
KSW1 080630Z 13008KT 08/M06 A3021 RMK A01 T00841055  RH  037%=      5-min Rain = 0
KSW1 080631Z 13009KT 08/M06 A3021 RMK A01 T00841055  RH  037%=      5-min Rain = 0
KSW1 080632Z 13008KT 08/M06 A3021 RMK A01 T00841055  RH  037%=      5-min Rain = 0
KSW1 080633Z 13008KT 08/M06 A3021 RMK A01 T00841055  RH  037%=      5-min Rain = 0
KSW1 080634Z 13009KT 08/M06 A3021 RMK A01 T00841055  RH  037%=      5-min Rain = 0
KSW1 080635Z 13009KT 08/M06 A3021 RMK A01 T00841055  RH  037%=      5-min Rain = 0
KSW1 080636Z 13008KT 08/M06 A3021 RMK A01 T00841055  RH  037%=      5-min Rain = 0
KSW1 080637Z 13009KT 08/M06 A3021 RMK A01 T00841055  RH  037%=      5-min Rain = 0
KSW1 080638Z 13009KT 08/M06 A3021 RMK A01 T00841055  RH  037%=      5-min Rain = 0
KSW1 080639Z 13010KT 08/M06 A3021 RMK A01 T00841055  RH  037%=      5-min Rain = 0
KSW1 080640Z 13010KT 08/M06 A3021 RMK A01 T00841055  RH  037%=      5-min Rain = 0
KSW1 080641Z 13010KT 08/M06 A3021 RMK A01 T00841055  RH  037%=      5-min Rain = 0
KSW1 080642Z 13009KT 09/M06 A3021 RMK A01 T00851055  RH  037%=      5-min Rain = 0
KSW1 080643Z 13010KT 08/M06 A3021 RMK A01 T00841055  RH  037%=      5-min Rain = 0
KSW1 080644Z 13009KT 08/M06 A3021 RMK A01 T00841055  RH  037%=      5-min Rain = 0
KSW1 080645Z 13009KT 08/M05 A3021 RMK A01 T00841054  RH  037%=      5-min Rain = 0
KSW1 080646Z 13008KT 08/M05 A3021 RMK A01 T00831054  RH  037%=      5-min Rain = 0
KSW1 080647Z 13008KT 08/M05 A3021 RMK A01 T00821054  RH  037%=      5-min Rain = 0
KSW1 080648Z 13008KT 08/M05 A3021 RMK A01 T00821054  RH  038%=      5-min Rain = 0
KSW1 080649Z 13009KT 08/M05 A3021 RMK A01 T00821054  RH  038%=      5-min Rain = 0
KSW1 080650Z 13010KT 08/M05 A3021 RMK A01 T00821054  RH  038%=      5-min Rain = 0
KSW1 080651Z 13010KT 08/M06 A3021 RMK A01 T00821055  RH  037%=      5-min Rain = 0
KSW1 080652Z 12009KT 08/M06 A3021 RMK A01 T00821055  RH  037%=      5-min Rain = 0
KSW1 080653Z 13009KT 08/M05 A3021 RMK A01 T00821054  RH  038%=      5-min Rain = 0
KSW1 080654Z 13009KT 08/M06 A3021 RMK A01 T00821055  RH  037%=      5-min Rain = 0
KSW1 080655Z 13010KT 08/M05 A3021 RMK A01 T00821054  RH  038%=      5-min Rain = 0
KSW1 080656Z 13009KT 08/M06 A3021 RMK A01 T00821055  RH  037%=      5-min Rain = 0
KSW1 080657Z 13009KT 08/M06 A3021 RMK A01 T00821055  RH  037%=      5-min Rain = 0
KSW1 080658Z 13009KT 08/M05 A3021 RMK A01 T00821054  RH  037%=      5-min Rain = 0
KSW1 080659Z 13009KT 08/M06 A3021 RMK A01 T00821055  RH  037%=      5-min Rain = 0
KSW1 080700Z 13009KT 08/M05 A3021 RMK A01 T00821054  RH  038%=      5-min Rain = 0
KSW1 080701Z 13009KT 08/M05 A3021 RMK A01 T00811054  RH  038%=      5-min Rain = 0
KSW1 080702Z 13010KT 08/M06 A3021 RMK A01 T00811055  RH  038%=      5-min Rain = 0
KSW1 080703Z 13010KT 08/M05 A3021 RMK A01 T00811054  RH  038%=      5-min Rain = 0
KSW1 080704Z 13009KT 08/M05 A3021 RMK A01 T00811054  RH  038%=      5-min Rain = 0
KSW1 080705Z 13010KT 08/M05 A3021 RMK A01 T00811054  RH  038%=      5-min Rain = 0
KSW1 080706Z 13011KT 08/M05 A3021 RMK A01 T00811054  RH  038%=      5-min Rain = 0
KSW1 080707Z 13011KT 08/M06 A3021 RMK A01 T00811055  RH  038%=      5-min Rain = 0
KSW1 080708Z 13011KT 08/M06 A3021 RMK A01 T00811055  RH  038%=      5-min Rain = 0
KSW1 080709Z 14010KT 08/M05 A3021 RMK A01 T00811054  RH  038%=      5-min Rain = 0
KSW1 080710Z 13011KT 08/M06 A3021 RMK A01 T00811055  RH  038%=      5-min Rain = 0
KSW1 080711Z 14010KT 08/M06 A3021 RMK A01 T00811055  RH  038%=      5-min Rain = 0
KSW1 080712Z 13009KT 08/M06 A3021 RMK A01 T00811055  RH  038%=      5-min Rain = 0
KSW1 080713Z 14010KT 08/M06 A3021 RMK A01 T00811055  RH  038%=      5-min Rain = 0
KSW1 080714Z 13010KT 08/M06 A3021 RMK A01 T00811055  RH  038%=      5-min Rain = 0
KSW1 080715Z 13010KT 08/M06 A3021 RMK A01 T00811055  RH  038%=      5-min Rain = 0
KSW1 080716Z 13010KT 08/M06 A302 RMK A01 T00811055  RH  038%=      5-min Rain = 0
KSW1 080717Z 13009KT 08/M06 A302 RMK A01 T00811055  RH  038%=      5-min Rain = 0
KSW1 080718Z 13009KT 08/M06 A302 RMK A01 T00811055  RH  038%=      5-min Rain = 0
KSW1 080719Z 13010KT 08/M06 A302 RMK A01 T00811055  RH  038%=      5-min Rain = 0
KSW1 080720Z 13010KT 08/M06 A302 RMK A01 T00811056  RH  037%=      5-min Rain = 0
KSW1 080721Z 13010KT 08/M06 A3021 RMK A01 T00811056  RH  037%=      5-min Rain = 0
KSW1 080722Z 13010KT 08/M06 A302 RMK A01 T00811056  RH  037%=      5-min Rain = 0
KSW1 080723Z 13010KT 08/M06 A302 RMK A01 T00811056  RH  037%=      5-min Rain = 0
KSW1 080724Z 13011KT 08/M06 A302 RMK A01 T00811056  RH  037%=      5-min Rain = 0
KSW1 080725Z 13010KT 08/M06 A302 RMK A01 T00811057  RH  037%=      5-min Rain = 0
KSW1 080726Z 13009KT 08/M06 A302 RMK A01 T00821057  RH  037%=      5-min Rain = 0
KSW1 080727Z 13009KT 08/M06 A302 RMK A01 T00821056  RH  037%=      5-min Rain = 0
KSW1 080728Z 13010KT 08/M06 A302 RMK A01 T00821056  RH  037%=      5-min Rain = 0
KSW1 080729Z 13010KT 08/M06 A302 RMK A01 T00811057  RH  037%=      5-min Rain = 0
KSW1 080730Z 13010KT 08/M06 A302 RMK A01 T00821058  RH  037%=      5-min Rain = 0
KSW1 080731Z 13010KT 08/M06 A302 RMK A01 T00821058  RH  037%=      5-min Rain = 0
KSW1 080732Z 13011KT 08/M06 A302 RMK A01 T00831058  RH  036%=      5-min Rain = 0
KSW1 080733Z 14011KT 08/M06 A302 RMK A01 T00831059  RH  036%=      5-min Rain = 0
KSW1 080734Z 13011KT 08/M06 A302 RMK A01 T00841059  RH  036%=      5-min Rain = 0
KSW1 080735Z 13011KT 08/M06 A302 RMK A01 T00841059  RH  036%=      5-min Rain = 0
KSW1 080736Z 14011KT 09/M06 A302 RMK A01 T00851059  RH  035%=      5-min Rain = 0
KSW1 080737Z 13012KT 09/M06 A302 RMK A01 T00851060  RH  035%=      5-min Rain = 0
KSW1 080738Z 14011KT 09/M06 A302 RMK A01 T00851059  RH  035%=      5-min Rain = 0
KSW1 080739Z 13013KT 09/M06 A302 RMK A01 T00861060  RH  035%=      5-min Rain = 0
KSW1 080740Z 14011KT 09/M06 A302 RMK A01 T00851060  RH  035%=      5-min Rain = 0
KSW1 080741Z 13011KT 09/M06 A302 RMK A01 T00851060  RH  035%=      5-min Rain = 0
KSW1 080742Z 14012KT 09/M06 A302 RMK A01 T00851060  RH  035%=      5-min Rain = 0
KSW1 080743Z 14010KT 09/M06 A302 RMK A01 T00851059  RH  035%=      5-min Rain = 0
KSW1 080744Z 13010KT 08/M06 A302 RMK A01 T00841059  RH  036%=      5-min Rain = 0
KSW1 080745Z 14010KT 09/M06 A302 RMK A01 T00851059  RH  036%=      5-min Rain = 0
KSW1 080746Z 13011KT 08/M06 A302 RMK A01 T00841060  RH  036%=      5-min Rain = 0
KSW1 080747Z 14012KT 08/M06 A302 RMK A01 T00841059  RH  036%=      5-min Rain = 0
KSW1 080748Z 14012KT 08/M06 A302 RMK A01 T00841060  RH  036%=      5-min Rain = 0
KSW1 080749Z 13012KT 09/M06 A302 RMK A01 T00851060  RH  035%=      5-min Rain = 0
KSW1 080750Z 14012KT 08/M06 A302 RMK A01 T00841060  RH  035%=      5-min Rain = 0
KSW1 080751Z 14013KT 09/M06 A302 RMK A01 T00851060  RH  035%=      5-min Rain = 0
KSW1 080752Z 14012KT 09/M06 A302 RMK A01 T00851059  RH  036%=      5-min Rain = 0
KSW1 080753Z 13012KT 08/M06 A302 RMK A01 T00841059  RH  036%=      5-min Rain = 0
KSW1 080754Z 13011KT 08/M06 A3019 RMK A01 T00841059  RH  036%=      5-min Rain = 0
KSW1 080755Z 13012KT 08/M06 A3019 RMK A01 T00831059  RH  036%=      5-min Rain = 0
KSW1 080756Z 13011KT 08/M06 A3019 RMK A01 T00831059  RH  036%=      5-min Rain = 0
KSW1 080757Z 13012KT 08/M06 A3019 RMK A01 T00831058  RH  036%=      5-min Rain = 0
KSW1 080758Z 14012KT 08/M06 A3019 RMK A01 T00831058  RH  036%=      5-min Rain = 0
KSW1 080759Z 14013KT 08/M06 A3019 RMK A01 T00821058  RH  036%=      5-min Rain = 0
KSW1 080800Z 13012KT 08/M06 A302 RMK A01 T00821058  RH  036%=      5-min Rain = 0
KSW1 080801Z 14011KT 08/M06 A302 RMK A01 T00821058  RH  036%=      5-min Rain = 0
KSW1 080802Z 13011KT 08/M06 A302 RMK A01 T00821058  RH  037%=      5-min Rain = 0
KSW1 080803Z 13013KT 08/M06 A302 RMK A01 T00811058  RH  037%=      5-min Rain = 0
KSW1 080804Z 13012KT 08/M06 A302 RMK A01 T00811058  RH  037%=      5-min Rain = 0
KSW1 080805Z 13012KT 08/M06 A302 RMK A01 T00821058  RH  036%=      5-min Rain = 0
KSW1 080806Z 13010KT 08/M06 A302 RMK A01 T00831058  RH  036%=      5-min Rain = 0
KSW1 080807Z 13012KT 08/M06 A302 RMK A01 T00831058  RH  036%=      5-min Rain = 0
KSW1 080808Z 13012KT 08/M06 A302 RMK A01 T00831058  RH  036%=      5-min Rain = 0
KSW1 080809Z 13010KT 08/M06 A302 RMK A01 T00831057  RH  037%=      5-min Rain = 0
KSW1 080810Z 13012KT 08/M06 A302 RMK A01 T00831057  RH  036%=      5-min Rain = 0
KSW1 080811Z 13012KT 08/M06 A302 RMK A01 T00831058  RH  036%=      5-min Rain = 0
KSW1 080812Z 14011KT 08/M06 A302 RMK A01 T00831058  RH  036%=      5-min Rain = 0
KSW1 080813Z 14012KT 08/M06 A3019 RMK A01 T00831058  RH  036%=      5-min Rain = 0
KSW1 080814Z 14013KT 08/M06 A3019 RMK A01 T00841058  RH  036%=      5-min Rain = 0
KSW1 080815Z 14014KT 08/M06 A3019 RMK A01 T00841059  RH  036%=      5-min Rain = 0
KSW1 080816Z 14014KT 08/M06 A3019 RMK A01 T00841059  RH  036%=      5-min Rain = 0
KSW1 080817Z 13015KT 08/M06 A3019 RMK A01 T00841059  RH  036%=      5-min Rain = 0
KSW1 080818Z 13014KT 09/M06 A3019 RMK A01 T00851059  RH  036%=      5-min Rain = 0
KSW1 080819Z 13012KT 09/M06 A3019 RMK A01 T00851058  RH  036%=      5-min Rain = 0
KSW1 080820Z 13011KT 08/M06 A3019 RMK A01 T00841058  RH  036%=      5-min Rain = 0
KSW1 080821Z 13011KT 08/M06 A3019 RMK A01 T00841058  RH  036%=      5-min Rain = 0
KSW1 080822Z 13010KT 08/M06 A3019 RMK A01 T00831057  RH  036%=      5-min Rain = 0
KSW1 080823Z 13011KT 08/M06 A3018 RMK A01 T00831057  RH  037%=      5-min Rain = 0
KSW1 080824Z 14012G17KT 08/M06 A3018 RMK A01 T00831057  RH  037%=      5-min Rain = 0
KSW1 080825Z 14011KT 08/M06 A3018 RMK A01 T00831057  RH  037%=      5-min Rain = 0
KSW1 080826Z 14012KT 08/M06 A3018 RMK A01 T00831058  RH  036%=      5-min Rain = 0
KSW1 080827Z 14012KT 08/M06 A3018 RMK A01 T00831057  RH  036%=      5-min Rain = 0
KSW1 080828Z 14012KT 08/M06 A3018 RMK A01 T00831058  RH  036%=      5-min Rain = 0
KSW1 080829Z 14013KT 08/M06 A3018 RMK A01 T00841058  RH  036%=      5-min Rain = 0
KSW1 080830Z 14012KT 08/M06 A3018 RMK A01 T00841058  RH  036%=      5-min Rain = 0
KSW1 080831Z 13013KT 08/M06 A3018 RMK A01 T00841058  RH  036%=      5-min Rain = 0
KSW1 080832Z 14013KT 08/M06 A3018 RMK A01 T00831058  RH  036%=      5-min Rain = 0
KSW1 080833Z 14012KT 08/M06 A3018 RMK A01 T00841058  RH  036%=      5-min Rain = 0
KSW1 080834Z 13012KT 08/M06 A3018 RMK A01 T00841057  RH  036%=      5-min Rain = 0
KSW1 080835Z 14011KT 08/M06 A3018 RMK A01 T00841057  RH  036%=      5-min Rain = 0
KSW1 080836Z 13011KT 08/M06 A3018 RMK A01 T00831057  RH  036%=      5-min Rain = 0
KSW1 080837Z 14011KT 08/M06 A3018 RMK A01 T00831057  RH  037%=      5-min Rain = 0
KSW1 080838Z 14011KT 08/M06 A3018 RMK A01 T00831056  RH  037%=      5-min Rain = 0
KSW1 080839Z 14011KT 08/M06 A3018 RMK A01 T00831057  RH  037%=      5-min Rain = 0
KSW1 080840Z 14012KT 08/M06 A3018 RMK A01 T00821057  RH  037%=      5-min Rain = 0
KSW1 080841Z 14011KT 08/M06 A3018 RMK A01 T00821057  RH  037%=      5-min Rain = 0
KSW1 080842Z 14012KT 08/M06 A3018 RMK A01 T00821057  RH  037%=      5-min Rain = 0
KSW1 080843Z 13012KT 08/M06 A3018 RMK A01 T00821057  RH  037%=      5-min Rain = 0
KSW1 080844Z 14011KT 08/M06 A3018 RMK A01 T00821056  RH  037%=      5-min Rain = 0
KSW1 080845Z 13011KT 08/M06 A3018 RMK A01 T00821056  RH  037%=      5-min Rain = 0
KSW1 080846Z 13009KT 08/M06 A3018 RMK A01 T00821056  RH  037%=      5-min Rain = 0
KSW1 080847Z 14009KT 08/M06 A3018 RMK A01 T00821056  RH  037%=      5-min Rain = 0
KSW1 080848Z 13009KT 08/M06 A3018 RMK A01 T00811056  RH  037%=      5-min Rain = 0
KSW1 080849Z 14010KT 08/M06 A3018 RMK A01 T00811056  RH  037%=      5-min Rain = 0
KSW1 080850Z 14009KT 08/M06 A3018 RMK A01 T00811056  RH  037%=      5-min Rain = 0
KSW1 080851Z 14009KT 08/M06 A3018 RMK A01 T00811056  RH  037%=      5-min Rain = 0
KSW1 080852Z 14011KT 08/M06 A3018 RMK A01 T00811056  RH  037%=      5-min Rain = 0
KSW1 080853Z 14009KT 08/M06 A3018 RMK A01 T00811057  RH  037%=      5-min Rain = 0
KSW1 080854Z 14010KT 08/M06 A3019 RMK A01 T00821057  RH  037%=      5-min Rain = 0
KSW1 080855Z 14010KT 08/M06 A3018 RMK A01 T00821057  RH  037%=      5-min Rain = 0
KSW1 080856Z 14009KT 08/M06 A3018 RMK A01 T00821057  RH  037%=      5-min Rain = 0
KSW1 080857Z 15009KT 08/M06 A3018 RMK A01 T00821056  RH  037%=      5-min Rain = 0
KSW1 080858Z 14010KT 08/M06 A3018 RMK A01 T00821056  RH  037%=      5-min Rain = 0
KSW1 080859Z 14011KT 08/M06 A3018 RMK A01 T00821057  RH  037%=      5-min Rain = 0
KSW1 080900Z 14010KT 08/M06 A3018 RMK A01 T00821057  RH  037%=      5-min Rain = 0
KSW1 080901Z 14011KT 08/M06 A3018 RMK A01 T00831057  RH  037%=      5-min Rain = 0
KSW1 080902Z 14010KT 08/M06 A3018 RMK A01 T00831056  RH  037%=      5-min Rain = 0
KSW1 080903Z 14010KT 08/M06 A3018 RMK A01 T00831057  RH  037%=      5-min Rain = 0
KSW1 080904Z 14010KT 08/M06 A3018 RMK A01 T00831057  RH  037%=      5-min Rain = 0
KSW1 080905Z 14011KT 08/M06 A3018 RMK A01 T00831056  RH  037%=      5-min Rain = 0
KSW1 080906Z 14010KT 08/M06 A3018 RMK A01 T00831056  RH  037%=      5-min Rain = 0
KSW1 080907Z 14010KT 08/M06 A3018 RMK A01 T00831056  RH  037%=      5-min Rain = 0
KSW1 080908Z 14010KT 08/M06 A3018 RMK A01 T00831057  RH  037%=      5-min Rain = 0
KSW1 080909Z 14011KT 08/M06 A3018 RMK A01 T00831056  RH  037%=      5-min Rain = 0
KSW1 080910Z 14011KT 08/M06 A3018 RMK A01 T00841056  RH  037%=      5-min Rain = 0
KSW1 080911Z 14011G17KT 08/M06 A3018 RMK A01 T00841056  RH  037%=      5-min Rain = 0
KSW1 080912Z 14011KT 08/M06 A3018 RMK A01 T00831057  RH  037%=      5-min Rain = 0
KSW1 080913Z 14011KT 08/M06 A3018 RMK A01 T00841056  RH  037%=      5-min Rain = 0
KSW1 080914Z 14012KT 08/M06 A3018 RMK A01 T00841056  RH  037%=      5-min Rain = 0
KSW1 080915Z 14012KT 08/M06 A3018 RMK A01 T00841056  RH  037%=      5-min Rain = 0
KSW1 080916Z 13013KT 08/M06 A3018 RMK A01 T00841056  RH  036%=      5-min Rain = 0
KSW1 080917Z 14011KT 08/M06 A3018 RMK A01 T00841056  RH  036%=      5-min Rain = 0
KSW1 080918Z 14011KT 09/M06 A3018 RMK A01 T00851056  RH  036%=      5-min Rain = 0
KSW1 080919Z 14011KT 09/M06 A3018 RMK A01 T00851056  RH  036%=      5-min Rain = 0
KSW1 080920Z 14011KT 08/M06 A3018 RMK A01 T00841056  RH  037%=      5-min Rain = 0
KSW1 080921Z 14010KT 08/M06 A3018 RMK A01 T00841055  RH  037%=      5-min Rain = 0
KSW1 080922Z 14011KT 08/M06 A3018 RMK A01 T00841056  RH  037%=      5-min Rain = 0
KSW1 080923Z 14011KT 08/M06 A3018 RMK A01 T00841056  RH  037%=      5-min Rain = 0
KSW1 080924Z 14013KT 08/M06 A3018 RMK A01 T00841056  RH  037%=      5-min Rain = 0
KSW1 080925Z 14012KT 08/M06 A3018 RMK A01 T00841056  RH  037%=      5-min Rain = 0
KSW1 080926Z 14011KT 09/M06 A3018 RMK A01 T00851056  RH  037%=      5-min Rain = 0
KSW1 080927Z 14012KT 08/M06 A3018 RMK A01 T00841056  RH  037%=      5-min Rain = 0
KSW1 080928Z 14010KT 09/M06 A3018 RMK A01 T00851056  RH  037%=      5-min Rain = 0
KSW1 080929Z 14011KT 08/M06 A3018 RMK A01 T00841055  RH  037%=      5-min Rain = 0
KSW1 080930Z 14010KT 09/M06 A3018 RMK A01 T00851055  RH  037%=      5-min Rain = 0
KSW1 080931Z 14013KT 09/M06 A3018 RMK A01 T00851055  RH  037%=      5-min Rain = 0
KSW1 080932Z 14013KT 09/M06 A3018 RMK A01 T00851056  RH  036%=      5-min Rain = 0
KSW1 080933Z 14013KT 09/M06 A3017 RMK A01 T00861056  RH  036%=      5-min Rain = 0
KSW1 080934Z 14012KT 09/M06 A3017 RMK A01 T00851056  RH  036%=      5-min Rain = 0
KSW1 080935Z 14010KT 09/M06 A3017 RMK A01 T00851055  RH  036%=      5-min Rain = 0
KSW1 080936Z 14010KT 09/M06 A3017 RMK A01 T00851055  RH  037%=      5-min Rain = 0
KSW1 080937Z 14011KT 09/M06 A3017 RMK A01 T00851055  RH  037%=      5-min Rain = 0
KSW1 080938Z 14013KT 09/M06 A3017 RMK A01 T00851055  RH  037%=      5-min Rain = 0
KSW1 080939Z 14011KT 08/M06 A3017 RMK A01 T00841056  RH  037%=      5-min Rain = 0
KSW1 080940Z 14011KT 09/M06 A3017 RMK A01 T00851055  RH  037%=      5-min Rain = 0
KSW1 080941Z 14012KT 08/M06 A3017 RMK A01 T00841055  RH  037%=      5-min Rain = 0
KSW1 080942Z 14012KT 09/M06 A3017 RMK A01 T00851055  RH  037%=      5-min Rain = 0
KSW1 080943Z 14012KT 08/M06 A3017 RMK A01 T00841055  RH  037%=      5-min Rain = 0
KSW1 080944Z 14011KT 08/M05 A3017 RMK A01 T00841054  RH  037%=      5-min Rain = 0
KSW1 080945Z 14013KT 08/M05 A3017 RMK A01 T00841054  RH  037%=      5-min Rain = 0
KSW1 080946Z 14011KT 08/M06 A3017 RMK A01 T00841055  RH  037%=      5-min Rain = 0
KSW1 080947Z 14010KT 08/M05 A3017 RMK A01 T00841054  RH  037%=      5-min Rain = 0
KSW1 080948Z 14011KT 08/M05 A3017 RMK A01 T00841054  RH  037%=      5-min Rain = 0
KSW1 080949Z 14011KT 08/M05 A3017 RMK A01 T00841054  RH  037%=      5-min Rain = 0
KSW1 080950Z 14011KT 08/M05 A3017 RMK A01 T00841054  RH  037%=      5-min Rain = 0
KSW1 080951Z 14011KT 08/M05 A3017 RMK A01 T00841054  RH  037%=      5-min Rain = 0
KSW1 080952Z 14010KT 08/M06 A3017 RMK A01 T00831055  RH  037%=      5-min Rain = 0
KSW1 080953Z 14010KT 08/M05 A3017 RMK A01 T00831054  RH  037%=      5-min Rain = 0
KSW1 080954Z 14013KT 08/M05 A3017 RMK A01 T00831054  RH  037%=      5-min Rain = 0
KSW1 080955Z 14012KT 08/M06 A3017 RMK A01 T00831055  RH  037%=      5-min Rain = 0
KSW1 080956Z 14012KT 08/M06 A3017 RMK A01 T00831055  RH  037%=      5-min Rain = 0
KSW1 080957Z 14011KT 08/M06 A3017 RMK A01 T00831055  RH  037%=      5-min Rain = 0
KSW1 080958Z 14011KT 08/M06 A3017 RMK A01 T00831055  RH  037%=      5-min Rain = 0
KSW1 080959Z 14010KT 08/M06 A3017 RMK A01 T00831055  RH  037%=      5-min Rain = 0
KSW1 081000Z 14011KT 08/M05 A3017 RMK A01 T00831054  RH  037%=      5-min Rain = 0
KSW1 081001Z 14012KT 08/M05 A3017 RMK A01 T00831054  RH  037%=      5-min Rain = 0
KSW1 081002Z 14012KT 08/M05 A3017 RMK A01 T00831054  RH  037%=      5-min Rain = 0
KSW1 081003Z 14011KT 08/M05 A3017 RMK A01 T00831054  RH  037%=      5-min Rain = 0
KSW1 081004Z 15011KT 08/M05 A3017 RMK A01 T00831053  RH  038%=      5-min Rain = 0
KSW1 081005Z 14011KT 08/M05 A3017 RMK A01 T00821054  RH  038%=      5-min Rain = 0
KSW1 081006Z 14010KT 08/M05 A3017 RMK A01 T00821054  RH  038%=      5-min Rain = 0
KSW1 081007Z 14011KT 08/M05 A3017 RMK A01 T00821054  RH  038%=      5-min Rain = 0
KSW1 081008Z 14011KT 08/M05 A3017 RMK A01 T00821054  RH  038%=      5-min Rain = 0
KSW1 081009Z 14011KT 08/M05 A3017 RMK A01 T00821053  RH  038%=      5-min Rain = 0
KSW1 081010Z 14011KT 08/M05 A3017 RMK A01 T00821053  RH  038%=      5-min Rain = 0
KSW1 081011Z 14010KT 08/M05 A3017 RMK A01 T00811053  RH  038%=      5-min Rain = 0
KSW1 081012Z 14010KT 08/M05 A3017 RMK A01 T00811053  RH  038%=      5-min Rain = 0
KSW1 081013Z 15011KT 08/M05 A3017 RMK A01 T00811053  RH  038%=      5-min Rain = 0
KSW1 081014Z 14010KT 08/M05 A3017 RMK A01 T00811053  RH  038%=      5-min Rain = 0
KSW1 081015Z 15011KT 08/M05 A3017 RMK A01 T00801053  RH  038%=      5-min Rain = 0
KSW1 081016Z 14011KT 08/M05 A3017 RMK A01 T00801053  RH  038%=      5-min Rain = 0
KSW1 081017Z 15010KT 08/M05 A3017 RMK A01 T00811052  RH  038%=      5-min Rain = 0
KSW1 081018Z 14010KT 08/M05 A3017 RMK A01 T00801053  RH  038%=      5-min Rain = 0
KSW1 081019Z 15012KT 08/M05 A3017 RMK A01 T00801052  RH  039%=      5-min Rain = 0
KSW1 081020Z 15011KT 08/M05 A3017 RMK A01 T00801052  RH  039%=      5-min Rain = 0
KSW1 081021Z 15012KT 08/M05 A3017 RMK A01 T00801053  RH  038%=      5-min Rain = 0
KSW1 081022Z 15013KT 08/M05 A3017 RMK A01 T00801053  RH  038%=      5-min Rain = 0
KSW1 081023Z 15011KT 08/M05 A3017 RMK A01 T00811053  RH  038%=      5-min Rain = 0
KSW1 081024Z 14012KT 08/M05 A3017 RMK A01 T00811053  RH  038%=      5-min Rain = 0
KSW1 081025Z 14011KT 08/M05 A3017 RMK A01 T00811053  RH  038%=      5-min Rain = 0
KSW1 081026Z 14011KT 08/M05 A3017 RMK A01 T00811052  RH  038%=      5-min Rain = 0
KSW1 081027Z 14012KT 08/M05 A3018 RMK A01 T00811052  RH  039%=      5-min Rain = 0
KSW1 081028Z 14011KT 08/M05 A3018 RMK A01 T00811052  RH  039%=      5-min Rain = 0
KSW1 081029Z 15011KT 08/M05 A3018 RMK A01 T00811052  RH  039%=      5-min Rain = 0
KSW1 081030Z 15010KT 08/M05 A3018 RMK A01 T00811052  RH  039%=      5-min Rain = 0
KSW1 081031Z 15011KT 08/M05 A3018 RMK A01 T00811052  RH  039%=      5-min Rain = 0
KSW1 081032Z 14012KT 08/M05 A3018 RMK A01 T00811053  RH  038%=      5-min Rain = 0
KSW1 081033Z 14010KT 08/M05 A3018 RMK A01 T00811053  RH  038%=      5-min Rain = 0
KSW1 081034Z 14011KT 08/M05 A3018 RMK A01 T00811052  RH  039%=      5-min Rain = 0
KSW1 081035Z 15010KT 08/M05 A3018 RMK A01 T00811052  RH  039%=      5-min Rain = 0
KSW1 081036Z 15010KT 08/M05 A3018 RMK A01 T00811051  RH  039%=      5-min Rain = 0
KSW1 081037Z 15011KT 08/M05 A3018 RMK A01 T00801051  RH  039%=      5-min Rain = 0
KSW1 081038Z 15011KT 08/M05 A3018 RMK A01 T00801051  RH  039%=      5-min Rain = 0
KSW1 081039Z 15010KT 08/M05 A3018 RMK A01 T00801052  RH  039%=      5-min Rain = 0
KSW1 081040Z 15010KT 08/M05 A3018 RMK A01 T00811051  RH  039%=      5-min Rain = 0
KSW1 081041Z 15011KT 08/M05 A3017 RMK A01 T00801052  RH  039%=      5-min Rain = 0
KSW1 081042Z 15010KT 08/M05 A3017 RMK A01 T00801051  RH  039%=      5-min Rain = 0
KSW1 081043Z 15010KT 08/M05 A3017 RMK A01 T00801052  RH  039%=      5-min Rain = 0
KSW1 081044Z 15010KT 08/M05 A3017 RMK A01 T00801051  RH  039%=      5-min Rain = 0
KSW1 081045Z 15011KT 08/M05 A3017 RMK A01 T00801051  RH  039%=      5-min Rain = 0
KSW1 081046Z 15011KT 08/M05 A3017 RMK A01 T00801051  RH  039%=      5-min Rain = 0
KSW1 081047Z 14011KT 08/M05 A3017 RMK A01 T00801051  RH  039%=      5-min Rain = 0
KSW1 081048Z 15011KT 08/M05 A3017 RMK A01 T00801051  RH  039%=      5-min Rain = 0
KSW1 081049Z 14013KT 08/M05 A3017 RMK A01 T00801051  RH  039%=      5-min Rain = 0
KSW1 081050Z 14010KT 08/M05 A3017 RMK A01 T00801051  RH  039%=      5-min Rain = 0
KSW1 081051Z 14010KT 08/M05 A3017 RMK A01 T00801051  RH  039%=      5-min Rain = 0
KSW1 081052Z 14010KT 08/M05 A3017 RMK A01 T00801050  RH  039%=      5-min Rain = 0
KSW1 081053Z 15011KT 08/M05 A3018 RMK A01 T00801050  RH  039%=      5-min Rain = 0
KSW1 081054Z 15010KT 08/M05 A3018 RMK A01 T00801050  RH  039%=      5-min Rain = 0
KSW1 081055Z 15011KT 08/M05 A3018 RMK A01 T00791050  RH  039%=      5-min Rain = 0
KSW1 081056Z 15011KT 08/M05 A3018 RMK A01 T00801050  RH  040%=      5-min Rain = 0
KSW1 081057Z 15010KT 08/M05 A3018 RMK A01 T00791050  RH  040%=      5-min Rain = 0
KSW1 081058Z 15011KT 08/M05 A3018 RMK A01 T00791049  RH  040%=      5-min Rain = 0
KSW1 081059Z 15012KT 08/M05 A3018 RMK A01 T00791050  RH  040%=      5-min Rain = 0
KSW1 081100Z 15011KT 08/M05 A3018 RMK A01 T00791050  RH  040%=      5-min Rain = 0
KSW1 081101Z 15011KT 08/M05 A3018 RMK A01 T00791050  RH  040%=      5-min Rain = 0
KSW1 081102Z 15010KT 08/M05 A3018 RMK A01 T00791050  RH  040%=      5-min Rain = 0
KSW1 081103Z 15010KT 08/M05 A3018 RMK A01 T00791049  RH  040%=      5-min Rain = 0
KSW1 081104Z 15012KT 08/M05 A3018 RMK A01 T00791049  RH  040%=      5-min Rain = 0
KSW1 081105Z 15009KT 08/M05 A3018 RMK A01 T00791049  RH  040%=      5-min Rain = 0
KSW1 081106Z 15009KT 08/M05 A3018 RMK A01 T00781048  RH  040%=      5-min Rain = 0
KSW1 081107Z 15010KT 08/M05 A3018 RMK A01 T00781048  RH  041%=      5-min Rain = 0
KSW1 081108Z 15010KT 08/M05 A3018 RMK A01 T00781048  RH  041%=      5-min Rain = 0
KSW1 081109Z 15011KT 08/M05 A3018 RMK A01 T00781048  RH  041%=      5-min Rain = 0
KSW1 081110Z 15011KT 08/M05 A3018 RMK A01 T00781048  RH  041%=      5-min Rain = 0
KSW1 081111Z 15009KT 08/M05 A3018 RMK A01 T00781048  RH  041%=      5-min Rain = 0
KSW1 081112Z 15010KT 08/M05 A3018 RMK A01 T00781047  RH  041%=      5-min Rain = 0
KSW1 081113Z 15011KT 08/M05 A3018 RMK A01 T00781047  RH  041%=      5-min Rain = 0
KSW1 081114Z 15010KT 08/M05 A3018 RMK A01 T00781048  RH  041%=      5-min Rain = 0
KSW1 081115Z 14010KT 08/M05 A3018 RMK A01 T00781047  RH  041%=      5-min Rain = 0
KSW1 081116Z 15011KT 08/M05 A3018 RMK A01 T00771047  RH  041%=      5-min Rain = 0
KSW1 081117Z 14011KT 08/M05 A3018 RMK A01 T00771047  RH  041%=      5-min Rain = 0
KSW1 081118Z 15010KT 08/M05 A3018 RMK A01 T00771047  RH  041%=      5-min Rain = 0
KSW1 081119Z 15010KT 08/M05 A3018 RMK A01 T00771047  RH  041%=      5-min Rain = 0
KSW1 081120Z 15011KT 08/M05 A3018 RMK A01 T00771047  RH  041%=      5-min Rain = 0
KSW1 081121Z 15011KT 08/M05 A3018 RMK A01 T00771047  RH  041%=      5-min Rain = 0
KSW1 081122Z 15010KT 08/M05 A3018 RMK A01 T00771047  RH  041%=      5-min Rain = 0
KSW1 081123Z 15009KT 08/M05 A3018 RMK A01 T00771046  RH  041%=      5-min Rain = 0
KSW1 081124Z 15010KT 08/M05 A3018 RMK A01 T00771046  RH  041%=      5-min Rain = 0
KSW1 081125Z 15009KT 08/M05 A3018 RMK A01 T00761046  RH  042%=      5-min Rain = 0
KSW1 081126Z 15010KT 08/M05 A3018 RMK A01 T00761046  RH  042%=      5-min Rain = 0
KSW1 081127Z 15011KT 08/M05 A3018 RMK A01 T00761046  RH  042%=      5-min Rain = 0
KSW1 081128Z 15010KT 08/M05 A3018 RMK A01 T00761046  RH  042%=      5-min Rain = 0
KSW1 081129Z 15010KT 08/M05 A3018 RMK A01 T00761046  RH  042%=      5-min Rain = 0
KSW1 081130Z 14010KT 08/M05 A3018 RMK A01 T00761045  RH  042%=      5-min Rain = 0
KSW1 081131Z 14010KT 08/M05 A3018 RMK A01 T00761045  RH  042%=      5-min Rain = 0
KSW1 081132Z 14009KT 08/M05 A3018 RMK A01 T00761045  RH  042%=      5-min Rain = 0
KSW1 081133Z 14010KT 08/M05 A3018 RMK A01 T00751045  RH  042%=      5-min Rain = 0
KSW1 081134Z 15009KT 08/M05 A3018 RMK A01 T00751045  RH  042%=      5-min Rain = 0
KSW1 081135Z 15010KT 08/M05 A3018 RMK A01 T00751045  RH  042%=      5-min Rain = 0
KSW1 081136Z 15010KT 08/M05 A3018 RMK A01 T00751045  RH  042%=      5-min Rain = 0
KSW1 081137Z 15008KT 08/M05 A3018 RMK A01 T00751045  RH  042%=      5-min Rain = 0
KSW1 081138Z 15010KT 08/M05 A3018 RMK A01 T00751045  RH  042%=      5-min Rain = 0
KSW1 081139Z 15010KT 08/M05 A3018 RMK A01 T00751045  RH  042%=      5-min Rain = 0
KSW1 081140Z 14010KT 08/M05 A3018 RMK A01 T00751045  RH  042%=      5-min Rain = 0
KSW1 081141Z 15010KT 08/M04 A3018 RMK A01 T00751044  RH  042%=      5-min Rain = 0
KSW1 081142Z 15010KT 08/M05 A3018 RMK A01 T00751045  RH  043%=      5-min Rain = 0
KSW1 081143Z 15010KT 08/M04 A3018 RMK A01 T00751044  RH  043%=      5-min Rain = 0
KSW1 081144Z 15008KT 08/M04 A3018 RMK A01 T00751044  RH  043%=      5-min Rain = 0
KSW1 081145Z 15009KT 07/M04 A3018 RMK A01 T00741044  RH  043%=      5-min Rain = 0
KSW1 081146Z 15010KT 07/M04 A3018 RMK A01 T00741044  RH  043%=      5-min Rain = 0
KSW1 081147Z 15009KT 07/M04 A3018 RMK A01 T00741044  RH  043%=      5-min Rain = 0
KSW1 081148Z 15010KT 08/M04 A3018 RMK A01 T00751044  RH  043%=      5-min Rain = 0
KSW1 081149Z 15009KT 08/M04 A3018 RMK A01 T00751044  RH  043%=      5-min Rain = 0
KSW1 081150Z 15010KT 07/M04 A3018 RMK A01 T00741044  RH  043%=      5-min Rain = 0
KSW1 081151Z 15008KT 08/M04 A3018 RMK A01 T00751044  RH  043%=      5-min Rain = 0
KSW1 081152Z 15009KT 08/M04 A3018 RMK A01 T00751044  RH  043%=      5-min Rain = 0
KSW1 081153Z 15009KT 07/M04 A3018 RMK A01 T00741044  RH  043%=      5-min Rain = 0
KSW1 081154Z 15010KT 07/M04 A3018 RMK A01 T00741043  RH  043%=      5-min Rain = 0
KSW1 081155Z 15010KT 07/M04 A3018 RMK A01 T00741043  RH  043%=      5-min Rain = 0
KSW1 081156Z 15009KT 07/M04 A3018 RMK A01 T00741043  RH  043%=      5-min Rain = 0
KSW1 081157Z 15010KT 07/M04 A3018 RMK A01 T00741043  RH  043%=      5-min Rain = 0
KSW1 081158Z 15009KT 07/M04 A3018 RMK A01 T00741043  RH  043%=      5-min Rain = 0
KSW1 081159Z 15009KT 07/M04 A3018 RMK A01 T00741043  RH  043%=      5-min Rain = 0
KSW1 081200Z 15009KT 07/M04 A3018 RMK A01 T00731044  RH  043%=      5-min Rain = 0
KSW1 081201Z 15009KT 07/M04 A3018 RMK A01 T00731043  RH  043%=      5-min Rain = 0
KSW1 081202Z 15008KT 07/M04 A3018 RMK A01 T00741043  RH  043%=      5-min Rain = 0
KSW1 081203Z 15009KT 07/M04 A3018 RMK A01 T00731043  RH  043%=      5-min Rain = 0
KSW1 081204Z 15009KT 07/M04 A3018 RMK A01 T00731043  RH  043%=      5-min Rain = 0
KSW1 081205Z 15009KT 07/M04 A3018 RMK A01 T00731043  RH  043%=      5-min Rain = 0
KSW1 081206Z 15010KT 07/M04 A3018 RMK A01 T00731044  RH  043%=      5-min Rain = 0
KSW1 081207Z 14010KT 07/M04 A3018 RMK A01 T00731044  RH  043%=      5-min Rain = 0
KSW1 081208Z 15009KT 07/M04 A3018 RMK A01 T00731044  RH  043%=      5-min Rain = 0
KSW1 081209Z 14010KT 07/M04 A3018 RMK A01 T00741044  RH  043%=      5-min Rain = 0
KSW1 081210Z 15010KT 07/M04 A3018 RMK A01 T00741044  RH  043%=      5-min Rain = 0
KSW1 081211Z 15009KT 07/M04 A3018 RMK A01 T00741044  RH  043%=      5-min Rain = 0
KSW1 081212Z 15009KT 07/M04 A3018 RMK A01 T00741044  RH  043%=      5-min Rain = 0
KSW1 081213Z 15009KT 07/M04 A3018 RMK A01 T00741044  RH  043%=      5-min Rain = 0
KSW1 081214Z 15008KT 07/M04 A3018 RMK A01 T00741044  RH  043%=      5-min Rain = 0
KSW1 081215Z 15009KT 07/M04 A3018 RMK A01 T00741044  RH  043%=      5-min Rain = 0
KSW1 081216Z 15009KT 07/M04 A3018 RMK A01 T00741044  RH  043%=      5-min Rain = 0
KSW1 081217Z 15009KT 07/M04 A3018 RMK A01 T00741044  RH  043%=      5-min Rain = 0
KSW1 081218Z 15010KT 07/M04 A3019 RMK A01 T00731044  RH  043%=      5-min Rain = 0
KSW1 081219Z 15008KT 07/M04 A3019 RMK A01 T00731044  RH  043%=      5-min Rain = 0
KSW1 081220Z 15009KT 07/M04 A3019 RMK A01 T00731044  RH  043%=      5-min Rain = 0
KSW1 081221Z 15010KT 07/M04 A3019 RMK A01 T00741043  RH  043%=      5-min Rain = 0
KSW1 081222Z 15009KT 07/M04 A3019 RMK A01 T00731044  RH  043%=      5-min Rain = 0
KSW1 081223Z 15008KT 07/M04 A3019 RMK A01 T00731044  RH  043%=      5-min Rain = 0
KSW1 081224Z 15009KT 07/M04 A3019 RMK A01 T00741043  RH  043%=      5-min Rain = 0
KSW1 081225Z 15007KT 07/M04 A3019 RMK A01 T00731043  RH  043%=      5-min Rain = 0
KSW1 081226Z 16007KT 07/M04 A3019 RMK A01 T00731043  RH  044%=      5-min Rain = 0
KSW1 081227Z 15008KT 07/M04 A3019 RMK A01 T00731043  RH  044%=      5-min Rain = 0
KSW1 081228Z 16008KT 07/M04 A3019 RMK A01 T00731043  RH  044%=      5-min Rain = 0
KSW1 081229Z 15009KT 07/M04 A3019 RMK A01 T00731043  RH  044%=      5-min Rain = 0
KSW1 081230Z 15008KT 07/M04 A3019 RMK A01 T00731043  RH  044%=      5-min Rain = 0
KSW1 081231Z 15008KT 07/M04 A3019 RMK A01 T00721043  RH  044%=      5-min Rain = 0
KSW1 081232Z 16008KT 07/M04 A3019 RMK A01 T00731042  RH  044%=      5-min Rain = 0
KSW1 081233Z 15009KT 07/M04 A3019 RMK A01 T00721042  RH  044%=      5-min Rain = 0
KSW1 081234Z 15009KT 07/M04 A3019 RMK A01 T00721043  RH  044%=      5-min Rain = 0
KSW1 081235Z 16009KT 07/M04 A3019 RMK A01 T00721043  RH  044%=      5-min Rain = 0
KSW1 081236Z 15009KT 07/M04 A3019 RMK A01 T00721043  RH  044%=      5-min Rain = 0
KSW1 081237Z 16009KT 07/M04 A3019 RMK A01 T00721043  RH  044%=      5-min Rain = 0
KSW1 081238Z 15009KT 07/M04 A3019 RMK A01 T00721043  RH  044%=      5-min Rain = 0
KSW1 081239Z 16009KT 07/M04 A3019 RMK A01 T00721043  RH  044%=      5-min Rain = 0
KSW1 081240Z 15008KT 07/M04 A3019 RMK A01 T00721042  RH  044%=      5-min Rain = 0
KSW1 081241Z 15009KT 07/M04 A3019 RMK A01 T00711042  RH  044%=      5-min Rain = 0
KSW1 081242Z 15009KT 07/M04 A3019 RMK A01 T00711042  RH  044%=      5-min Rain = 0
KSW1 081243Z 15009KT 07/M04 A3019 RMK A01 T00711042  RH  044%=      5-min Rain = 0
KSW1 081244Z 15009KT 07/M04 A3019 RMK A01 T00711043  RH  044%=      5-min Rain = 0
KSW1 081245Z 16011KT 07/M04 A3019 RMK A01 T00711043  RH  044%=      5-min Rain = 0
KSW1 081246Z 16009KT 07/M04 A3019 RMK A01 T00721043  RH  044%=      5-min Rain = 0
KSW1 081247Z 16010KT 07/M04 A3019 RMK A01 T00721043  RH  044%=      5-min Rain = 0
KSW1 081248Z 16011KT 07/M04 A3019 RMK A01 T00731043  RH  044%=      5-min Rain = 0
KSW1 081249Z 15011KT 07/M04 A3019 RMK A01 T00731044  RH  043%=      5-min Rain = 0
KSW1 081250Z 16009KT 07/M04 A3019 RMK A01 T00731044  RH  043%=      5-min Rain = 0
KSW1 081251Z 16011KT 07/M04 A3019 RMK A01 T00731044  RH  043%=      5-min Rain = 0
KSW1 081252Z 16010KT 07/M04 A3019 RMK A01 T00731044  RH  043%=      5-min Rain = 0
KSW1 081253Z 16011KT 07/M04 A3019 RMK A01 T00731044  RH  043%=      5-min Rain = 0
KSW1 081254Z 16011KT 07/M04 A3019 RMK A01 T00731044  RH  043%=      5-min Rain = 0
KSW1 081255Z 16011KT 07/M04 A3019 RMK A01 T00731044  RH  043%=      5-min Rain = 0
KSW1 081256Z 16010KT 07/M04 A3019 RMK A01 T00741044  RH  043%=      5-min Rain = 0
KSW1 081257Z 16010KT 07/M04 A3019 RMK A01 T00731044  RH  043%=      5-min Rain = 0
KSW1 081258Z 16011KT 07/M04 A3019 RMK A01 T00741044  RH  043%=      5-min Rain = 0
KSW1 081259Z 16010KT 07/M04 A3019 RMK A01 T00731044  RH  043%=      5-min Rain = 0
KSW1 081300Z 16010KT 07/M04 A3019 RMK A01 T00741044  RH  043%=      5-min Rain = 0
KSW1 081301Z 16010KT 07/M04 A3019 RMK A01 T00741044  RH  043%=      5-min Rain = 0
KSW1 081302Z 16011KT 07/M04 A3019 RMK A01 T00731044  RH  043%=      5-min Rain = 0
KSW1 081303Z 16011KT 07/M04 A3019 RMK A01 T00741044  RH  043%=      5-min Rain = 0
KSW1 081304Z 16012KT 07/M05 A3019 RMK A01 T00741045  RH  043%=      5-min Rain = 0
KSW1 081305Z 16012KT 07/M05 A3019 RMK A01 T00741045  RH  043%=      5-min Rain = 0
KSW1 081306Z 16011KT 07/M04 A3019 RMK A01 T00741044  RH  043%=      5-min Rain = 0
KSW1 081307Z 16011KT 07/M04 A3019 RMK A01 T00741044  RH  043%=      5-min Rain = 0
KSW1 081308Z 16011KT 07/M04 A302 RMK A01 T00741044  RH  043%=      5-min Rain = 0
KSW1 081309Z 16012KT 07/M04 A302 RMK A01 T00741044  RH  043%=      5-min Rain = 0
KSW1 081310Z 16011KT 07/M04 A302 RMK A01 T00741044  RH  043%=      5-min Rain = 0
KSW1 081311Z 16011KT 07/M04 A302 RMK A01 T00741044  RH  043%=      5-min Rain = 0
KSW1 081312Z 16011KT 07/M04 A302 RMK A01 T00731044  RH  043%=      5-min Rain = 0
KSW1 081313Z 16010KT 07/M04 A302 RMK A01 T00741044  RH  043%=      5-min Rain = 0
KSW1 081314Z 16009KT 07/M04 A302 RMK A01 T00731043  RH  043%=      5-min Rain = 0
KSW1 081315Z 16010KT 07/M04 A302 RMK A01 T00731043  RH  043%=      5-min Rain = 0
KSW1 081316Z 16011KT 07/M04 A302 RMK A01 T00731043  RH  043%=      5-min Rain = 0
KSW1 081317Z 16011KT 07/M04 A302 RMK A01 T00731044  RH  043%=      5-min Rain = 0
KSW1 081318Z 16011KT 07/M04 A302 RMK A01 T00731044  RH  043%=      5-min Rain = 0
KSW1 081319Z 16011KT 07/M04 A302 RMK A01 T00731044  RH  043%=      5-min Rain = 0
KSW1 081320Z 16010KT 07/M04 A302 RMK A01 T00741044  RH  043%=      5-min Rain = 0
KSW1 081321Z 16010KT 07/M05 A302 RMK A01 T00731045  RH  043%=      5-min Rain = 0
KSW1 081322Z 16012KT 07/M05 A302 RMK A01 T00741045  RH  043%=      5-min Rain = 0
KSW1 081323Z 16011KT 08/M05 A302 RMK A01 T00751045  RH  042%=      5-min Rain = 0
KSW1 081324Z 16010KT 08/M05 A302 RMK A01 T00751045  RH  042%=      5-min Rain = 0
KSW1 081325Z 16011KT 08/M05 A302 RMK A01 T00751045  RH  042%=      5-min Rain = 0
KSW1 081326Z 16010KT 08/M05 A302 RMK A01 T00751045  RH  042%=      5-min Rain = 0
KSW1 081327Z 16010KT 08/M05 A302 RMK A01 T00761045  RH  042%=      5-min Rain = 0
KSW1 081328Z 16010KT 08/M05 A302 RMK A01 T00761046  RH  042%=      5-min Rain = 0
KSW1 081329Z 16009KT 08/M05 A302 RMK A01 T00761045  RH  042%=      5-min Rain = 0
KSW1 081330Z 16010KT 08/M05 A302 RMK A01 T00761045  RH  042%=      5-min Rain = 0
KSW1 081331Z 16009KT 08/M05 A302 RMK A01 T00761045  RH  042%=      5-min Rain = 0
KSW1 081332Z 16010KT 08/M05 A302 RMK A01 T00761045  RH  042%=      5-min Rain = 0
KSW1 081333Z 16011KT 08/M05 A302 RMK A01 T00761045  RH  042%=      5-min Rain = 0
KSW1 081334Z 16009KT 08/M05 A302 RMK A01 T00771045  RH  042%=      5-min Rain = 0
KSW1 081335Z 16009KT 08/M05 A302 RMK A01 T00771045  RH  042%=      5-min Rain = 0
KSW1 081336Z 16010KT 08/M05 A302 RMK A01 T00771045  RH  042%=      5-min Rain = 0
KSW1 081337Z 15011KT 08/M05 A302 RMK A01 T00771045  RH  042%=      5-min Rain = 0
KSW1 081338Z 16011KT 08/M05 A302 RMK A01 T00771045  RH  042%=      5-min Rain = 0
KSW1 081339Z 16011KT 08/M05 A302 RMK A01 T00781045  RH  041%=      5-min Rain = 0
KSW1 081340Z 16011KT 08/M04 A302 RMK A01 T00781044  RH  042%=      5-min Rain = 0
KSW1 081341Z 16010KT 08/M05 A302 RMK A01 T00771045  RH  042%=      5-min Rain = 0
KSW1 081342Z 16011KT 08/M04 A302 RMK A01 T00781044  RH  042%=      5-min Rain = 0
KSW1 081343Z 16010KT 08/M05 A302 RMK A01 T00781046  RH  041%=      5-min Rain = 0
KSW1 081344Z 16010KT 08/M05 A302 RMK A01 T00781045  RH  041%=      5-min Rain = 0
KSW1 081345Z 16009KT 08/M04 A302 RMK A01 T00791044  RH  041%=      5-min Rain = 0
KSW1 081346Z 16010KT 08/M04 A302 RMK A01 T00781044  RH  042%=      5-min Rain = 0
KSW1 081347Z 16011KT 08/M04 A302 RMK A01 T00781044  RH  042%=      5-min Rain = 0
KSW1 081348Z 16011KT 08/M04 A302 RMK A01 T00791044  RH  041%=      5-min Rain = 0
KSW1 081349Z 15010KT 08/M04 A302 RMK A01 T00791044  RH  042%=      5-min Rain = 0
KSW1 081350Z 16011KT 08/M04 A302 RMK A01 T00791044  RH  041%=      5-min Rain = 0
KSW1 081351Z 15011KT 08/M04 A302 RMK A01 T00791043  RH  042%=      5-min Rain = 0
KSW1 081352Z 16012KT 08/M04 A302 RMK A01 T00791043  RH  041%=      5-min Rain = 0
KSW1 081353Z 15012KT 08/M04 A302 RMK A01 T00801044  RH  041%=      5-min Rain = 0
KSW1 081354Z 15010KT 08/M04 A302 RMK A01 T00801043  RH  041%=      5-min Rain = 0
KSW1 081355Z 16011KT 08/M04 A302 RMK A01 T00801043  RH  041%=      5-min Rain = 0
KSW1 081356Z 16009KT 08/M04 A302 RMK A01 T00811043  RH  041%=      5-min Rain = 0
KSW1 081357Z 16011KT 08/M04 A302 RMK A01 T00811043  RH  041%=      5-min Rain = 0
KSW1 081358Z 16012KT 08/M04 A302 RMK A01 T00821044  RH  041%=      5-min Rain = 0
KSW1 081359Z 16011KT 08/M04 A302 RMK A01 T00821044  RH  041%=      5-min Rain = 0
KSW1 081400Z 16012KT 08/M04 A302 RMK A01 T00821044  RH  041%=      5-min Rain = 0
KSW1 081401Z 16012KT 08/M04 A302 RMK A01 T00831044  RH  040%=      5-min Rain = 0
KSW1 081402Z 16011KT 08/M05 A302 RMK A01 T00831045  RH  040%=      5-min Rain = 0
KSW1 081403Z 16012KT 08/M04 A302 RMK A01 T00841044  RH  040%=      5-min Rain = 0
KSW1 081404Z 16012KT 08/M04 A302 RMK A01 T00841044  RH  040%=      5-min Rain = 0
KSW1 081405Z 16012KT 09/M05 A302 RMK A01 T00851045  RH  040%=      5-min Rain = 0
KSW1 081406Z 16011KT 09/M05 A302 RMK A01 T00851045  RH  040%=      5-min Rain = 0
KSW1 081407Z 16012KT 09/M04 A3019 RMK A01 T00861044  RH  039%=      5-min Rain = 0
KSW1 081408Z 16013KT 09/M05 A3019 RMK A01 T00871045  RH  039%=      5-min Rain = 0
KSW1 081409Z 16014KT 09/M05 A3019 RMK A01 T00871046  RH  039%=      5-min Rain = 0
KSW1 081410Z 16011KT 09/M05 A3019 RMK A01 T00881047  RH  038%=      5-min Rain = 0
KSW1 081411Z 16012KT 09/M05 A3019 RMK A01 T00881046  RH  038%=      5-min Rain = 0
KSW1 081412Z 16011KT 09/M05 A302 RMK A01 T00891046  RH  038%=      5-min Rain = 0
KSW1 081413Z 16010KT 09/M05 A302 RMK A01 T00901047  RH  038%=      5-min Rain = 0
KSW1 081414Z 16012KT 09/M05 A302 RMK A01 T00911046  RH  038%=      5-min Rain = 0
KSW1 081415Z 16011KT 09/M05 A302 RMK A01 T00911047  RH  037%=      5-min Rain = 0
KSW1 081416Z 16011KT 09/M05 A302 RMK A01 T00911047  RH  037%=      5-min Rain = 0
KSW1 081417Z 16011KT 09/M05 A302 RMK A01 T00911047  RH  037%=      5-min Rain = 0
KSW1 081418Z 16012KT 09/M05 A302 RMK A01 T00921048  RH  037%=      5-min Rain = 0
KSW1 081419Z 16011KT 09/M05 A302 RMK A01 T00921048  RH  037%=      5-min Rain = 0
KSW1 081420Z 15011KT 09/M05 A3019 RMK A01 T00931047  RH  037%=      5-min Rain = 0
KSW1 081421Z 16011KT 09/M05 A3019 RMK A01 T00941047  RH  037%=      5-min Rain = 0
KSW1 081422Z 16011KT 09/M05 A3019 RMK A01 T00941047  RH  037%=      5-min Rain = 0
KSW1 081423Z 16011KT 10/M05 A3019 RMK A01 T00951048  RH  036%=      5-min Rain = 0
KSW1 081424Z 16013KT 10/M05 A3019 RMK A01 T00951048  RH  036%=      5-min Rain = 0
KSW1 081425Z 16013KT 10/M05 A3019 RMK A01 T00961049  RH  036%=      5-min Rain = 0
KSW1 081426Z 16013KT 10/M05 A3019 RMK A01 T00961049  RH  035%=      5-min Rain = 0
KSW1 081427Z 15013KT 10/M05 A3019 RMK A01 T00971049  RH  035%=      5-min Rain = 0
KSW1 081428Z 16013KT 10/M05 A3019 RMK A01 T00981051  RH  035%=      5-min Rain = 0
KSW1 081429Z 16014KT 10/M05 A3019 RMK A01 T00991051  RH  034%=      5-min Rain = 0
KSW1 081430Z 16013KT 10/M05 A3019 RMK A01 T01001052  RH  034%=      5-min Rain = 0
KSW1 081431Z 16012KT 10/M05 A3019 RMK A01 T01001053  RH  034%=      5-min Rain = 0
KSW1 081432Z 16014KT 10/M05 A3019 RMK A01 T01011053  RH  033%=      5-min Rain = 0
KSW1 081433Z 16014KT 10/M05 A3019 RMK A01 T01021054  RH  033%=      5-min Rain = 0
KSW1 081434Z 16012KT 10/M06 A3019 RMK A01 T01031055  RH  033%=      5-min Rain = 0
KSW1 081435Z 16014KT 10/M05 A3019 RMK A01 T01031054  RH  033%=      5-min Rain = 0
KSW1 081436Z 16013KT 10/M06 A3019 RMK A01 T01031055  RH  032%=      5-min Rain = 0
KSW1 081437Z 16015KT 10/M06 A3019 RMK A01 T01031055  RH  032%=      5-min Rain = 0
KSW1 081438Z 16015KT 10/M06 A3019 RMK A01 T01031057  RH  032%=      5-min Rain = 0
KSW1 081439Z 16016KT 10/M06 A3019 RMK A01 T01041057  RH  032%=      5-min Rain = 0
KSW1 081440Z 16015KT 10/M06 A3019 RMK A01 T01041057  RH  032%=      5-min Rain = 0
KSW1 081441Z 16015KT 10/M06 A3019 RMK A01 T01041057  RH  032%=      5-min Rain = 0
KSW1 081442Z 16015G20KT 11/M06 A3019 RMK A01 T01051057  RH  031%=      5-min Rain = 0
KSW1 081443Z 16014KT 11/M06 A3019 RMK A01 T01051058  RH  031%=      5-min Rain = 0
KSW1 081444Z 16015KT 11/M06 A3019 RMK A01 T01051057  RH  031%=      5-min Rain = 0
KSW1 081445Z 16015KT 11/M06 A3019 RMK A01 T01061058  RH  031%=      5-min Rain = 0
KSW1 081446Z 16016G21KT 11/M06 A3018 RMK A01 T01061057  RH  031%=      5-min Rain = 0
KSW1 081447Z 16015G21KT 11/M06 A3018 RMK A01 T01061060  RH  031%=      5-min Rain = 0
KSW1 081448Z 16016KT 11/M06 A3018 RMK A01 T01071058  RH  031%=      5-min Rain = 0
KSW1 081449Z 16018KT 11/M06 A3018 RMK A01 T01071058  RH  031%=      5-min Rain = 0
KSW1 081450Z 16015KT 11/M06 A3018 RMK A01 T01071058  RH  031%=      5-min Rain = 0
KSW1 081451Z 16016KT 11/M06 A3018 RMK A01 T01081057  RH  031%=      5-min Rain = 0
KSW1 081452Z 16016G21KT 11/M06 A3018 RMK A01 T01081056  RH  031%=      5-min Rain = 0
KSW1 081453Z 16015G20KT 11/M06 A3018 RMK A01 T01081057  RH  031%=      5-min Rain = 0
KSW1 081454Z 16017G22KT 11/M06 A3018 RMK A01 T01081057  RH  031%=      5-min Rain = 0
KSW1 081455Z 16017G23KT 11/M06 A3018 RMK A01 T01081057  RH  031%=      5-min Rain = 0
KSW1 081456Z 16020G25KT 11/M06 A3017 RMK A01 T01081058  RH  031%=      5-min Rain = 0
KSW1 081457Z 16017KT 11/M06 A3017 RMK A01 T01081059  RH  030%=      5-min Rain = 0
KSW1 081458Z 15014KT 11/M06 A3017 RMK A01 T01081057  RH  031%=      5-min Rain = 0
KSW1 081459Z 16016G22KT 11/M06 A3017 RMK A01 T01081057  RH  031%=      5-min Rain = 0
KSW1 081500Z 16018KT 11/M06 A3017 RMK A01 T01081057  RH  031%=      5-min Rain = 0
KSW1 081501Z 16020KT 11/M06 A3016 RMK A01 T01091057  RH  031%=      5-min Rain = 0
KSW1 081502Z 16020KT 11/M06 A3016 RMK A01 T01081059  RH  030%=      5-min Rain = 0
KSW1 081503Z 16020KT 11/M06 A3016 RMK A01 T01081059  RH  030%=      5-min Rain = 0
KSW1 081504Z 16019KT 11/M06 A3016 RMK A01 T01081060  RH  030%=      5-min Rain = 0
KSW1 081505Z 16020G25KT 11/M06 A3016 RMK A01 T01081059  RH  030%=      5-min Rain = 0
KSW1 081506Z 15015G21KT 11/M06 A3016 RMK A01 T01081057  RH  031%=      5-min Rain = 0
KSW1 081507Z 16017KT 11/M06 A3016 RMK A01 T01091057  RH  031%=      5-min Rain = 0
KSW1 081508Z 16020KT 11/M06 A3016 RMK A01 T01091057  RH  031%=      5-min Rain = 0
KSW1 081509Z 16016G22KT 11/M06 A3016 RMK A01 T01101057  RH  031%=      5-min Rain = 0
KSW1 081510Z 16018KT 11/M06 A3016 RMK A01 T01101057  RH  031%=      5-min Rain = 0
KSW1 081511Z 16017G22KT 11/M06 A3016 RMK A01 T01101057  RH  030%=      5-min Rain = 0
KSW1 081512Z 16017KT 11/M06 A3016 RMK A01 T01101057  RH  030%=      5-min Rain = 0
KSW1 081513Z 15016KT 11/M06 A3016 RMK A01 T01111057  RH  030%=      5-min Rain = 0
KSW1 081514Z 16017KT 11/M06 A3016 RMK A01 T01111057  RH  030%=      5-min Rain = 0
KSW1 081515Z 16017G22KT 11/M06 A3017 RMK A01 T01111057  RH  030%=      5-min Rain = 0
KSW1 081516Z 16016G21KT 11/M06 A3017 RMK A01 T01111058  RH  030%=      5-min Rain = 0
KSW1 081517Z 16014G19KT 11/M06 A3017 RMK A01 T01121059  RH  030%=      5-min Rain = 0
KSW1 081518Z 17013G18KT 11/M06 A3018 RMK A01 T01121057  RH  030%=      5-min Rain = 0
KSW1 081519Z 16012KT 11/M06 A3018 RMK A01 T01141056  RH  030%=      5-min Rain = 0
KSW1 081520Z 18010KT 12/M06 A3019 RMK A01 T01151055  RH  030%=      5-min Rain = 0
KSW1 081521Z 17012KT 12/M06 A3019 RMK A01 T01161056  RH  030%=      5-min Rain = 0
KSW1 081522Z 17013KT 12/M06 A3019 RMK A01 T01161057  RH  029%=      5-min Rain = 0
KSW1 081523Z 18011KT 12/M06 A3019 RMK A01 T01161057  RH  029%=      5-min Rain = 0
KSW1 081524Z 17008KT 12/M06 A3019 RMK A01 T01161056  RH  030%=      5-min Rain = 0
KSW1 081525Z 17007KT 12/M05 A3019 RMK A01 T01181052  RH  030%=      5-min Rain = 0
KSW1 081526Z 18008KT 12/M05 A3019 RMK A01 T01191052  RH  030%=      5-min Rain = 0
KSW1 081527Z 17007KT 12/M05 A302 RMK A01 T01191053  RH  030%=      5-min Rain = 0
KSW1 081528Z 16009KT 12/M05 A302 RMK A01 T01191053  RH  029%=      5-min Rain = 0
KSW1 081529Z 18010KT 12/M05 A302 RMK A01 T01201053  RH  029%=      5-min Rain = 0
KSW1 081530Z 16008KT 12/M06 A302 RMK A01 T01201055  RH  029%=      5-min Rain = 0
KSW1 081531Z 16007KT 12/M05 A302 RMK A01 T01211053  RH  029%=      5-min Rain = 0
KSW1 081532Z 17010KT 13/M05 A302 RMK A01 T01251048  RH  029%=      5-min Rain = 0
KSW1 081533Z 19012KT 13/M05 A3019 RMK A01 T01261054  RH  028%=      5-min Rain = 0
KSW1 081534Z 18011KT 12/M05 A3019 RMK A01 T01241053  RH  029%=      5-min Rain = 0
KSW1 081535Z 18011KT 12/M06 A3019 RMK A01 T01231055  RH  029%=      5-min Rain = 0
KSW1 081536Z 17010G15KT 12/M05 A302 RMK A01 T01221053  RH  029%=      5-min Rain = 0
KSW1 081537Z 17012KT 12/M05 A3019 RMK A01 T01221054  RH  029%=      5-min Rain = 0
KSW1 081538Z 17009KT 12/M06 A302 RMK A01 T01201055  RH  029%=      5-min Rain = 0
KSW1 081539Z 17010KT 12/M05 A302 RMK A01 T01211051  RH  030%=      5-min Rain = 0
KSW1 081540Z 18011KT 12/M05 A302 RMK A01 T01221052  RH  029%=      5-min Rain = 0
KSW1 081541Z 17013KT 12/M05 A302 RMK A01 T01211051  RH  030%=      5-min Rain = 0
KSW1 081542Z 17013KT 12/M05 A302 RMK A01 T01201052  RH  030%=      5-min Rain = 0
KSW1 081543Z 16014KT 12/M05 A302 RMK A01 T01191052  RH  030%=      5-min Rain = 0
KSW1 081544Z 18014KT 12/M05 A302 RMK A01 T01181052  RH  030%=      5-min Rain = 0
KSW1 081545Z 18014KT 12/M05 A302 RMK A01 T01171052  RH  030%=      5-min Rain = 0
KSW1 081546Z 18013KT 12/M05 A302 RMK A01 T01171049  RH  031%=      5-min Rain = 0
KSW1 081547Z 18014KT 12/M05 A302 RMK A01 T01171049  RH  031%=      5-min Rain = 0
KSW1 081548Z 18012KT 12/M05 A302 RMK A01 T01161050  RH  031%=      5-min Rain = 0
KSW1 081549Z 18012KT 12/M05 A302 RMK A01 T01161048  RH  031%=      5-min Rain = 0
KSW1 081550Z 18011KT 12/M05 A302 RMK A01 T01171045  RH  032%=      5-min Rain = 0
KSW1 081551Z 18011KT 12/M05 A302 RMK A01 T01191048  RH  031%=      5-min Rain = 0
KSW1 081552Z 18011KT 12/M05 A302 RMK A01 T01181047  RH  031%=      5-min Rain = 0
KSW1 081553Z 19010KT 12/M05 A3019 RMK A01 T01181046  RH  031%=      5-min Rain = 0
KSW1 081554Z 18011KT 12/M04 A3019 RMK A01 T01181044  RH  032%=      5-min Rain = 0
KSW1 081555Z 17009KT 12/M04 A3019 RMK A01 T01191042  RH  032%=      5-min Rain = 0
KSW1 081556Z 18012KT 12/M04 A3019 RMK A01 T01211043  RH  032%=      5-min Rain = 0
KSW1 081557Z 18014KT 12/M05 A3019 RMK A01 T01211046  RH  031%=      5-min Rain = 0
KSW1 081558Z 19011KT 12/M05 A3019 RMK A01 T01211047  RH  031%=      5-min Rain = 0
KSW1 081559Z 18012KT 12/M05 A3019 RMK A01 T01211045  RH  031%=      5-min Rain = 0
KSW1 081600Z 18011KT 12/M04 A302 RMK A01 T01221044  RH  031%=      5-min Rain = 0
KSW1 081601Z 18011KT 12/M04 A302 RMK A01 T01221044  RH  031%=      5-min Rain = 0
KSW1 081602Z 17013KT 13/M04 A3019 RMK A01 T01251044  RH  031%=      5-min Rain = 0
KSW1 081603Z 18013KT 13/M05 A3019 RMK A01 T01251049  RH  029%=      5-min Rain = 0
KSW1 081604Z 17012G17KT 13/M05 A3019 RMK A01 T01251047  RH  030%=      5-min Rain = 0
KSW1 081605Z 17013KT 13/M05 A3019 RMK A01 T01251047  RH  030%=      5-min Rain = 0
KSW1 081606Z 19014KT 13/M05 A3019 RMK A01 T01271049  RH  029%=      5-min Rain = 0
KSW1 081607Z 19015KT 13/M05 A3019 RMK A01 T01281051  RH  028%=      5-min Rain = 0
KSW1 081608Z 17013KT 13/M05 A3019 RMK A01 T01271050  RH  029%=      5-min Rain = 0
KSW1 081609Z 18013KT 13/M05 A3019 RMK A01 T01271049  RH  029%=      5-min Rain = 0
KSW1 081610Z 19015KT 13/M05 A3019 RMK A01 T01271051  RH  029%=      5-min Rain = 0
KSW1 081611Z 17014G19KT 13/M05 A3019 RMK A01 T01271051  RH  028%=      5-min Rain = 0
KSW1 081612Z 19014KT 13/M05 A3019 RMK A01 T01281052  RH  028%=      5-min Rain = 0
KSW1 081613Z 19015KT 13/M05 A3019 RMK A01 T01281051  RH  028%=      5-min Rain = 0
KSW1 081614Z 18013KT 13/M05 A3019 RMK A01 T01281052  RH  028%=      5-min Rain = 0
KSW1 081615Z 17018KT 13/M05 A3019 RMK A01 T01281051  RH  028%=      5-min Rain = 0
KSW1 081616Z 18017KT 13/M05 A3019 RMK A01 T01281053  RH  028%=      5-min Rain = 0
KSW1 081617Z 17017KT 13/M05 A3018 RMK A01 T01281054  RH  028%=      5-min Rain = 0
KSW1 081618Z 18015KT 13/M05 A3018 RMK A01 T01271054  RH  028%=      5-min Rain = 0
KSW1 081619Z 18015KT 13/M05 A3018 RMK A01 T01271054  RH  028%=      5-min Rain = 0
KSW1 081620Z 17013KT 13/M05 A3018 RMK A01 T01271052  RH  028%=      5-min Rain = 0
KSW1 081621Z 18014KT 13/M05 A3019 RMK A01 T01271051  RH  028%=      5-min Rain = 0
KSW1 081622Z 17015KT 13/M05 A3019 RMK A01 T01281052  RH  028%=      5-min Rain = 0
KSW1 081623Z 18017G22KT 13/M05 A3018 RMK A01 T01281053  RH  028%=      5-min Rain = 0
KSW1 081624Z 18015KT 13/M05 A3019 RMK A01 T01271054  RH  028%=      5-min Rain = 0
KSW1 081625Z 19015KT 13/M05 A3019 RMK A01 T01271053  RH  028%=      5-min Rain = 0
KSW1 081626Z 18015KT 13/M05 A3019 RMK A01 T01281052  RH  028%=      5-min Rain = 0
KSW1 081627Z 19014KT 13/M06 A3019 RMK A01 T01271055  RH  028%=      5-min Rain = 0
KSW1 081628Z 19012KT 13/M05 A3019 RMK A01 T01261052  RH  028%=      5-min Rain = 0
KSW1 081629Z 18012KT 13/M05 A3019 RMK A01 T01301048  RH  029%=      5-min Rain = 0
KSW1 081630Z 18012KT 13/M05 A3019 RMK A01 T01341046  RH  028%=      5-min Rain = 0
KSW1 081631Z 17013KT 14/M05 A3019 RMK A01 T01351050  RH  027%=      5-min Rain = 0
KSW1 081632Z 17016KT 14/M05 A3018 RMK A01 T01361049  RH  027%=      5-min Rain = 0
KSW1 081633Z 17015KT 14/M05 A3018 RMK A01 T01351052  RH  027%=      5-min Rain = 0
KSW1 081634Z 18014KT 14/M05 A3018 RMK A01 T01351050  RH  027%=      5-min Rain = 0
KSW1 081635Z 18017KT 14/M05 A3018 RMK A01 T01361051  RH  027%=      5-min Rain = 0
KSW1 081636Z 19014KT 14/M05 A3018 RMK A01 T01351052  RH  027%=      5-min Rain = 0
KSW1 081637Z 18013KT 14/M05 A3018 RMK A01 T01361050  RH  027%=      5-min Rain = 0
KSW1 081638Z 18013KT 14/M05 A3018 RMK A01 T01371049  RH  027%=      5-min Rain = 0
KSW1 081639Z 18011KT 14/M05 A3018 RMK A01 T01391048  RH  027%=      5-min Rain = 0
KSW1 081640Z 18015KT 14/M05 A3018 RMK A01 T01391047  RH  027%=      5-min Rain = 0
KSW1 081641Z 18015KT 14/M05 A3018 RMK A01 T01371050  RH  027%=      5-min Rain = 0
KSW1 081642Z 18013KT 13/M05 A3018 RMK A01 T01341051  RH  027%=      5-min Rain = 0
KSW1 081643Z 18015KT 13/M05 A3018 RMK A01 T01341050  RH  028%=      5-min Rain = 0
KSW1 081644Z 17016G22KT 14/M05 A3018 RMK A01 T01351050  RH  027%=      5-min Rain = 0
KSW1 081645Z 19017G23KT 14/M05 A3018 RMK A01 T01361052  RH  027%=      5-min Rain = 0
KSW1 081646Z 19017KT 14/M05 A3018 RMK A01 T01371052  RH  027%=      5-min Rain = 0
KSW1 081647Z 19014KT 14/M05 A3018 RMK A01 T01381048  RH  027%=      5-min Rain = 0
KSW1 081648Z 18014KT 14/M05 A3018 RMK A01 T01401049  RH  027%=      5-min Rain = 0
KSW1 081649Z 19016KT 14/M05 A3018 RMK A01 T01401051  RH  026%=      5-min Rain = 0
KSW1 081650Z 19016KT 14/M05 A3018 RMK A01 T01391052  RH  026%=      5-min Rain = 0
KSW1 081651Z 19016KT 14/M05 A3017 RMK A01 T01381053  RH  026%=      5-min Rain = 0
KSW1 081652Z 18013KT 14/M05 A3017 RMK A01 T01371053  RH  026%=      5-min Rain = 0
KSW1 081653Z 18014G19KT 14/M05 A3017 RMK A01 T01371049  RH  027%=      5-min Rain = 0
KSW1 081654Z 19016KT 14/M05 A3017 RMK A01 T01381051  RH  027%=      5-min Rain = 0
KSW1 081655Z 18017KT 14/M05 A3017 RMK A01 T01361053  RH  026%=      5-min Rain = 0
KSW1 081656Z 18015KT 14/M05 A3017 RMK A01 T01361052  RH  027%=      5-min Rain = 0
KSW1 081657Z 18018KT 14/M05 A3017 RMK A01 T01371052  RH  026%=      5-min Rain = 0
KSW1 081658Z 18015KT 14/M05 A3017 RMK A01 T01371051  RH  027%=      5-min Rain = 0
KSW1 081659Z 19015KT 14/M05 A3017 RMK A01 T01381049  RH  027%=      5-min Rain = 0
KSW1 081700Z 19017KT 14/M05 A3017 RMK A01 T01401050  RH  026%=      5-min Rain = 0
KSW1 081701Z 19016KT 14/M05 A3017 RMK A01 T01401050  RH  026%=      5-min Rain = 0
KSW1 081702Z 19016KT 14/M05 A3017 RMK A01 T01411050  RH  026%=      5-min Rain = 0
KSW1 081703Z 20015KT 14/M05 A3017 RMK A01 T01411051  RH  026%=      5-min Rain = 0
KSW1 081704Z 18015KT 14/M05 A3017 RMK A01 T01411049  RH  027%=      5-min Rain = 0
KSW1 081705Z 18015KT 14/M05 A3017 RMK A01 T01441046  RH  027%=      5-min Rain = 0
KSW1 081706Z 16017KT 15/M05 A3017 RMK A01 T01461047  RH  026%=      5-min Rain = 0
KSW1 081707Z 18016KT 15/M05 A3017 RMK A01 T01471048  RH  026%=      5-min Rain = 0
KSW1 081708Z 18015KT 15/M05 A3017 RMK A01 T01491045  RH  026%=      5-min Rain = 0
KSW1 081709Z 18014KT 15/M04 A3017 RMK A01 T01511044  RH  026%=      5-min Rain = 0
KSW1 081710Z 18016KT 15/M04 A3017 RMK A01 T01531043  RH  026%=      5-min Rain = 0
KSW1 081711Z 17016KT 15/M05 A3017 RMK A01 T01501048  RH  025%=      5-min Rain = 0
KSW1 081712Z 18017KT 15/M05 A3017 RMK A01 T01501047  RH  025%=      5-min Rain = 0
KSW1 081713Z 18015G20KT 15/M05 A3017 RMK A01 T01501047  RH  025%=      5-min Rain = 0
KSW1 081714Z 19016G22KT 15/M05 A3017 RMK A01 T01501047  RH  025%=      5-min Rain = 0
KSW1 081715Z 18018KT 15/M05 A3017 RMK A01 T01501048  RH  025%=      5-min Rain = 0
KSW1 081716Z 18019KT 15/M05 A3017 RMK A01 T01491050  RH  025%=      5-min Rain = 0
KSW1 081717Z 19018KT 15/M05 A3017 RMK A01 T01471050  RH  025%=      5-min Rain = 0
KSW1 081718Z 20013G18KT 15/M05 A3017 RMK A01 T01461048  RH  026%=      5-min Rain = 0
KSW1 081719Z 18013KT 15/M05 A3017 RMK A01 T01471046  RH  026%=      5-min Rain = 0
KSW1 081720Z 19011G16KT 15/M05 A3017 RMK A01 T01471045  RH  026%=      5-min Rain = 0
KSW1 081721Z 18014G21KT 15/M04 A3017 RMK A01 T01491044  RH  026%=      5-min Rain = 0
KSW1 081722Z 18017KT 15/M05 A3017 RMK A01 T01491046  RH  026%=      5-min Rain = 0
KSW1 081723Z 18018KT 15/M05 A3017 RMK A01 T01471046  RH  026%=      5-min Rain = 0
KSW1 081724Z 18018KT 15/M05 A3017 RMK A01 T01481046  RH  026%=      5-min Rain = 0
KSW1 081725Z 18017G22KT 15/M05 A3017 RMK A01 T01471048  RH  026%=      5-min Rain = 0
KSW1 081726Z 19019KT 15/M05 A3017 RMK A01 T01471046  RH  026%=      5-min Rain = 0
KSW1 081727Z 19018KT 15/M05 A3017 RMK A01 T01471047  RH  026%=      5-min Rain = 0
KSW1 081728Z 19017KT 15/M05 A3016 RMK A01 T01491045  RH  026%=      5-min Rain = 0
KSW1 081729Z 18019KT 15/M04 A3016 RMK A01 T01521043  RH  026%=      5-min Rain = 0
KSW1 081730Z 19016KT 15/M05 A3016 RMK A01 T01531045  RH  025%=      5-min Rain = 0
KSW1 081731Z 19018KT 15/M04 A3016 RMK A01 T01531043  RH  026%=      5-min Rain = 0
KSW1 081732Z 19018KT 15/M04 A3016 RMK A01 T01541044  RH  025%=      5-min Rain = 0
KSW1 081733Z 19018G23KT 15/M04 A3016 RMK A01 T01531043  RH  026%=      5-min Rain = 0
KSW1 081734Z 20018KT 15/M04 A3016 RMK A01 T01531041  RH  026%=      5-min Rain = 0
KSW1 081735Z 19015G20KT 15/M04 A3016 RMK A01 T01541041  RH  026%=      5-min Rain = 0
KSW1 081736Z 20016KT 16/M04 A3016 RMK A01 T01551041  RH  026%=      5-min Rain = 0
KSW1 081737Z 20014KT 16/M04 A3016 RMK A01 T01551041  RH  026%=      5-min Rain = 0
KSW1 081738Z 21013KT 16/M04 A3016 RMK A01 T01551041  RH  026%=      5-min Rain = 0
KSW1 081739Z 20011KT 16/M04 A3016 RMK A01 T01551041  RH  026%=      5-min Rain = 0
KSW1 081740Z 18012KT 16/M04 A3016 RMK A01 T01561038  RH  026%=      5-min Rain = 0
KSW1 081741Z 17012KT 16/M03 A3016 RMK A01 T01611034  RH  026%=      5-min Rain = 0
KSW1 081742Z 17013KT 16/M04 A3016 RMK A01 T01641037  RH  025%=      5-min Rain = 0
KSW1 081743Z 19015KT 17/M04 A3016 RMK A01 T01661038  RH  024%=      5-min Rain = 0
KSW1 081744Z 20015KT 17/M04 A3016 RMK A01 T01651043  RH  024%=      5-min Rain = 0
KSW1 081745Z 21015KT 16/M05 A3016 RMK A01 T01621046  RH  024%=      5-min Rain = 0
KSW1 081746Z 19011KT 16/M04 A3015 RMK A01 T01641042  RH  024%=      5-min Rain = 0
KSW1 081747Z 18017G22KT 17/M04 A3015 RMK A01 T01671041  RH  024%=      5-min Rain = 0
KSW1 081748Z 18017KT 17/M05 A3015 RMK A01 T01651046  RH  023%=      5-min Rain = 0
KSW1 081749Z 19017KT 16/M05 A3015 RMK A01 T01641045  RH  024%=      5-min Rain = 0
KSW1 081750Z 20016KT 16/M05 A3015 RMK A01 T01621047  RH  023%=      5-min Rain = 0
KSW1 081751Z 19014G19KT 16/M05 A3015 RMK A01 T01611046  RH  024%=      5-min Rain = 0
KSW1 081752Z 18016KT 16/M05 A3015 RMK A01 T01611045  RH  024%=      5-min Rain = 0
KSW1 081753Z 17013KT 16/M04 A3015 RMK A01 T01611044  RH  024%=      5-min Rain = 0
KSW1 081754Z 18015KT 16/M04 A3015 RMK A01 T01631043  RH  024%=      5-min Rain = 0
KSW1 081755Z 17016G22KT 16/M04 A3015 RMK A01 T01641042  RH  024%=      5-min Rain = 0
KSW1 081756Z 17017G22KT 17/M04 A3015 RMK A01 T01651044  RH  024%=      5-min Rain = 0
KSW1 081757Z 18013KT 17/M04 A3015 RMK A01 T01651043  RH  024%=      5-min Rain = 0
KSW1 081758Z 18013KT 17/M04 A3015 RMK A01 T01661039  RH  024%=      5-min Rain = 0
KSW1 081759Z 18012KT 17/M04 A3015 RMK A01 T01671042  RH  024%=      5-min Rain = 0
KSW1 081800Z 18015KT 17/M04 A3015 RMK A01 T01661042  RH  024%=      5-min Rain = 0
KSW1 081801Z 19013G19KT 17/M04 A3015 RMK A01 T01681038  RH  024%=      5-min Rain = 0
KSW1 081802Z 20012KT 17/M04 A3015 RMK A01 T01731039  RH  023%=      5-min Rain = 0
KSW1 081803Z 19014KT 17/M04 A3015 RMK A01 T01721040  RH  023%=      5-min Rain = 0
KSW1 081804Z 20012KT 17/M04 A3015 RMK A01 T01711042  RH  023%=      5-min Rain = 0
KSW1 081805Z 19012KT 17/M04 A3015 RMK A01 T01701041  RH  023%=      5-min Rain = 0
KSW1 081806Z 18013G19KT 17/M04 A3014 RMK A01 T01701041  RH  023%=      5-min Rain = 0
KSW1 081807Z 19009G14KT 17/M04 A3014 RMK A01 T01691042  RH  023%=      5-min Rain = 0
KSW1 081808Z 20013KT 17/M04 A3014 RMK A01 T01711039  RH  023%=      5-min Rain = 0
KSW1 081809Z 18012G17KT 17/M04 A3014 RMK A01 T01721039  RH  023%=      5-min Rain = 0
KSW1 081810Z 19016KT 17/M04 A3014 RMK A01 T01741038  RH  023%=      5-min Rain = 0
KSW1 081811Z 20017KT 18/M04 A3014 RMK A01 T01761040  RH  023%=      5-min Rain = 0
KSW1 081812Z 19014KT 18/M04 A3014 RMK A01 T01751044  RH  022%=      5-min Rain = 0
KSW1 081813Z 21014KT 17/M04 A3014 RMK A01 T01731042  RH  023%=      5-min Rain = 0
KSW1 081814Z 20012KT 18/M04 A3014 RMK A01 T01751042  RH  022%=      5-min Rain = 0
KSW1 081815Z 21010G15KT 18/M04 A3014 RMK A01 T01751043  RH  022%=      5-min Rain = 0
KSW1 081816Z 19016KT 18/M04 A3014 RMK A01 T01771039  RH  023%=      5-min Rain = 0
KSW1 081817Z 18017KT 18/M04 A3014 RMK A01 T01771043  RH  022%=      5-min Rain = 0
KSW1 081818Z 18015KT 18/M04 A3014 RMK A01 T01781040  RH  022%=      5-min Rain = 0
KSW1 081819Z 18017KT 18/M04 A3014 RMK A01 T01791042  RH  022%=      5-min Rain = 0
KSW1 081820Z 19015G21KT 18/M04 A3014 RMK A01 T01791042  RH  022%=      5-min Rain = 0
KSW1 081821Z 19013G22KT 18/M04 A3014 RMK A01 T01811039  RH  022%=      5-min Rain = 0
KSW1 081822Z 19014G19KT 18/M04 A3013 RMK A01 T01811042  RH  022%=      5-min Rain = 0
KSW1 081823Z 18013KT 18/M04 A3013 RMK A01 T01791041  RH  022%=      5-min Rain = 0
KSW1 081824Z 18013KT 18/M04 A3013 RMK A01 T01791041  RH  022%=      5-min Rain = 0
KSW1 081825Z 20015KT 18/M04 A3013 RMK A01 T01791040  RH  022%=      5-min Rain = 0
KSW1 081826Z 21016KT 18/M04 A3013 RMK A01 T01791041  RH  022%=      5-min Rain = 0
KSW1 081827Z 21014KT 18/M04 A3012 RMK A01 T01791040  RH  022%=      5-min Rain = 0
KSW1 081828Z 20016KT 18/M04 A3012 RMK A01 T01801040  RH  022%=      5-min Rain = 0
KSW1 081829Z 18016KT 18/M04 A3012 RMK A01 T01791041  RH  022%=      5-min Rain = 0
KSW1 081830Z 17015KT 18/M04 A3012 RMK A01 T01801040  RH  022%=      5-min Rain = 0
KSW1 081831Z 17017KT 18/M04 A3012 RMK A01 T01821039  RH  022%=      5-min Rain = 0
KSW1 081832Z 18015KT 18/M04 A3012 RMK A01 T01841039  RH  022%=      5-min Rain = 0
KSW1 081833Z 19017G22KT 19/M04 A3012 RMK A01 T01851040  RH  021%=      5-min Rain = 0
KSW1 081834Z 20015KT 18/M04 A3012 RMK A01 T01831043  RH  021%=      5-min Rain = 0
KSW1 081835Z 19013KT 18/M04 A3012 RMK A01 T01791044  RH  021%=      5-min Rain = 0
KSW1 081836Z 18011KT 18/M04 A3012 RMK A01 T01781042  RH  022%=      5-min Rain = 0
KSW1 081837Z 18012KT 18/M04 A3012 RMK A01 T01821035  RH  023%=      5-min Rain = 0
KSW1 081838Z 20013G19KT 19/M04 A3012 RMK A01 T01851038  RH  022%=      5-min Rain = 0
KSW1 081839Z 20013KT 19/M04 A3012 RMK A01 T01851042  RH  021%=      5-min Rain = 0
KSW1 081840Z 18013KT 18/M04 A3012 RMK A01 T01841041  RH  021%=      5-min Rain = 0
KSW1 081841Z 18018KT 19/M04 A3011 RMK A01 T01851039  RH  022%=      5-min Rain = 0
KSW1 081842Z 19018KT 19/M04 A3011 RMK A01 T01871041  RH  021%=      5-min Rain = 0
KSW1 081843Z 19015KT 19/M04 A3012 RMK A01 T01881042  RH  021%=      5-min Rain = 0
KSW1 081844Z 19017KT 19/M04 A3011 RMK A01 T01891040  RH  021%=      5-min Rain = 0
KSW1 081845Z 19015KT 19/M04 A3011 RMK A01 T01881044  RH  020%=      5-min Rain = 0
KSW1 081846Z 19015KT 19/M05 A3011 RMK A01 T01861046  RH  020%=      5-min Rain = 0
KSW1 081847Z 19013G18KT 19/M04 A3011 RMK A01 T01861040  RH  021%=      5-min Rain = 0
KSW1 081848Z 18016KT 19/M04 A3011 RMK A01 T01891041  RH  021%=      5-min Rain = 0
KSW1 081849Z 18013KT 19/M05 A3011 RMK A01 T01871045  RH  020%=      5-min Rain = 0
KSW1 081850Z 19014KT 19/M04 A3011 RMK A01 T01851042  RH  021%=      5-min Rain = 0
KSW1 081851Z 18019KT 19/M04 A301 RMK A01 T01871041  RH  021%=      5-min Rain = 0
KSW1 081852Z 19016KT 19/M05 A301 RMK A01 T01871045  RH  020%=      5-min Rain = 0
KSW1 081853Z 19014G22KT 19/M04 A301 RMK A01 T01851044  RH  021%=      5-min Rain = 0
KSW1 081854Z 18021KT 19/M04 A301 RMK A01 T01871042  RH  021%=      5-min Rain = 0
KSW1 081855Z 18019KT 19/M04 A301 RMK A01 T01871044  RH  020%=      5-min Rain = 0
KSW1 081856Z 19018KT 19/M05 A301 RMK A01 T01861045  RH  020%=      5-min Rain = 0
KSW1 081857Z 18018KT 19/M04 A301 RMK A01 T01861044  RH  021%=      5-min Rain = 0
KSW1 081858Z 18015G21KT 19/M04 A301 RMK A01 T01861044  RH  020%=      5-min Rain = 0
KSW1 081859Z 18014KT 19/M04 A301 RMK A01 T01871043  RH  021%=      5-min Rain = 0
KSW1 081900Z 20014KT 19/M04 A301 RMK A01 T01871043  RH  021%=      5-min Rain = 0
KSW1 081901Z 18016KT 19/M04 A301 RMK A01 T01891041  RH  021%=      5-min Rain = 0
KSW1 081902Z 18019KT 19/M04 A301 RMK A01 T01901043  RH  020%=      5-min Rain = 0
KSW1 081903Z 17016KT 19/M04 A3009 RMK A01 T01901042  RH  020%=      5-min Rain = 0
KSW1 081904Z 17016KT 19/M04 A3009 RMK A01 T01911044  RH  020%=      5-min Rain = 0
KSW1 081905Z 17010KT 19/M04 A3009 RMK A01 T01911042  RH  020%=      5-min Rain = 0
KSW1 081906Z 18017G24KT 20/M04 A3009 RMK A01 T01951038  RH  020%=      5-min Rain = 0
KSW1 081907Z 17020KT 20/M04 A3009 RMK A01 T01961041  RH  020%=      5-min Rain = 0
KSW1 081908Z 17015KT 19/M05 A3009 RMK A01 T01931045  RH  020%=      5-min Rain = 0
KSW1 081909Z 18017G22KT 19/M05 A3009 RMK A01 T01911045  RH  020%=      5-min Rain = 0
KSW1 081910Z 18022G28KT 19/M04 A3008 RMK A01 T01911044  RH  020%=      5-min Rain = 0
KSW1 081911Z 18019G24KT 19/M05 A3009 RMK A01 T01891047  RH  020%=      5-min Rain = 0
KSW1 081912Z 17015KT 19/M05 A3008 RMK A01 T01861049  RH  020%=      5-min Rain = 0
KSW1 081913Z 16017KT 19/M05 A3008 RMK A01 T01861047  RH  020%=      5-min Rain = 0
KSW1 081914Z 16016G22KT 19/M05 A3008 RMK A01 T01861047  RH  020%=      5-min Rain = 0
KSW1 081915Z 17019G24KT 19/M05 A3008 RMK A01 T01881045  RH  020%=      5-min Rain = 0
KSW1 081916Z 19017KT 19/M05 A3008 RMK A01 T01891045  RH  020%=      5-min Rain = 0
KSW1 081917Z 20016G22KT 19/M05 A3008 RMK A01 T01881047  RH  020%=      5-min Rain = 0
KSW1 081918Z 20017KT 19/M05 A3008 RMK A01 T01861046  RH  020%=      5-min Rain = 0
KSW1 081919Z 18016KT 19/M05 A3008 RMK A01 T01871045  RH  020%=      5-min Rain = 0
KSW1 081920Z 18015KT 19/M04 A3008 RMK A01 T01901038  RH  021%=      5-min Rain = 0
KSW1 081921Z 18015G21KT 19/M04 A3008 RMK A01 T01941042  RH  020%=      5-min Rain = 0
KSW1 081922Z 19016G21KT 19/M05 A3008 RMK A01 T01911045  RH  020%=      5-min Rain = 0
KSW1 081923Z 18016KT 19/M04 A3008 RMK A01 T01911043  RH  020%=      5-min Rain = 0
KSW1 081924Z 18018G24KT 19/M04 A3007 RMK A01 T01941040  RH  020%=      5-min Rain = 0
KSW1 081925Z 18021KT 20/M04 A3007 RMK A01 T01951044  RH  019%=      5-min Rain = 0
KSW1 081926Z 19017KT 19/M05 A3007 RMK A01 T01921046  RH  020%=      5-min Rain = 0
KSW1 081927Z 18018G23KT 19/M05 A3007 RMK A01 T01911045  RH  020%=      5-min Rain = 0
KSW1 081928Z 19016KT 19/M05 A3007 RMK A01 T01911047  RH  019%=      5-min Rain = 0
KSW1 081929Z 19020G26KT 19/M05 A3007 RMK A01 T01901046  RH  020%=      5-min Rain = 0
KSW1 081930Z 18018KT 19/M05 A3007 RMK A01 T01891049  RH  020%=      5-min Rain = 0
KSW1 081931Z 18018G23KT 19/M05 A3007 RMK A01 T01881045  RH  020%=      5-min Rain = 0
KSW1 081932Z 18018KT 19/M05 A3007 RMK A01 T01891045  RH  020%=      5-min Rain = 0
KSW1 081933Z 17016KT 19/M05 A3007 RMK A01 T01891047  RH  020%=      5-min Rain = 0
KSW1 081934Z 18014KT 19/M05 A3007 RMK A01 T01881048  RH  020%=      5-min Rain = 0
KSW1 081935Z 18017KT 19/M04 A3007 RMK A01 T01891043  RH  020%=      5-min Rain = 0
KSW1 081936Z 18019KT 19/M05 A3007 RMK A01 T01901047  RH  020%=      5-min Rain = 0
KSW1 081937Z 20013KT 19/M05 A3007 RMK A01 T01871048  RH  020%=      5-min Rain = 0
KSW1 081938Z 20014KT 19/M04 A3007 RMK A01 T01881044  RH  020%=      5-min Rain = 0
KSW1 081939Z 19016KT 19/M04 A3007 RMK A01 T01901043  RH  020%=      5-min Rain = 0
KSW1 081940Z 19019KT 19/M04 A3007 RMK A01 T01931043  RH  020%=      5-min Rain = 0
KSW1 081941Z 18020KT 19/M05 A3007 RMK A01 T01921046  RH  020%=      5-min Rain = 0
KSW1 081942Z 20018G23KT 19/M05 A3007 RMK A01 T01891046  RH  020%=      5-min Rain = 0
KSW1 081943Z 19015KT 19/M05 A3007 RMK A01 T01901045  RH  020%=      5-min Rain = 0
KSW1 081944Z 18018G24KT 19/M04 A3007 RMK A01 T01921042  RH  020%=      5-min Rain = 0
KSW1 081945Z 18022KT 20/M04 A3007 RMK A01 T01951044  RH  020%=      5-min Rain = 0
KSW1 081946Z 19022G27KT 19/M05 A3007 RMK A01 T01931047  RH  019%=      5-min Rain = 0
KSW1 081947Z 19019KT 19/M05 A3007 RMK A01 T01921045  RH  020%=      5-min Rain = 0
KSW1 081948Z 20019KT 19/M04 A3007 RMK A01 T01931044  RH  020%=      5-min Rain = 0
KSW1 081949Z 19018KT 19/M05 A3007 RMK A01 T01931046  RH  019%=      5-min Rain = 0
KSW1 081950Z 19016KT 19/M05 A3007 RMK A01 T01911047  RH  020%=      5-min Rain = 0
KSW1 081951Z 18015KT 19/M05 A3007 RMK A01 T01901046  RH  020%=      5-min Rain = 0
KSW1 081952Z 19017G24KT 19/M05 A3006 RMK A01 T01911045  RH  020%=      5-min Rain = 0
KSW1 081953Z 19022KT 19/M04 A3006 RMK A01 T01941043  RH  020%=      5-min Rain = 0
KSW1 081954Z 18020KT 20/M04 A3006 RMK A01 T01961044  RH  019%=      5-min Rain = 0
KSW1 081955Z 17022KT 20/M05 A3006 RMK A01 T01971045  RH  019%=      5-min Rain = 0
KSW1 081956Z 18019KT 20/M04 A3006 RMK A01 T01971043  RH  019%=      5-min Rain = 0
KSW1 081957Z 18019KT 20/M04 A3006 RMK A01 T01991043  RH  019%=      5-min Rain = 0
KSW1 081958Z 18017KT 20/M05 A3006 RMK A01 T01971045  RH  019%=      5-min Rain = 0
KSW1 081959Z 19017KT 20/M04 A3006 RMK A01 T01971042  RH  019%=      5-min Rain = 0
KSW1 082000Z 18017KT 20/M04 A3006 RMK A01 T01981044  RH  019%=      5-min Rain = 0
KSW1 082001Z 18014KT 20/M05 A3006 RMK A01 T01951046  RH  019%=      5-min Rain = 0
KSW1 082002Z 18015G22KT 19/M05 A3006 RMK A01 T01941045  RH  020%=      5-min Rain = 0
KSW1 082003Z 18022KT 20/M04 A3006 RMK A01 T01971040  RH  020%=      5-min Rain = 0
KSW1 082004Z 19020KT 20/M04 A3006 RMK A01 T01981044  RH  019%=      5-min Rain = 0
KSW1 082005Z 19015KT 20/M05 A3006 RMK A01 T01971045  RH  019%=      5-min Rain = 0
KSW1 082006Z 19014KT 20/M05 A3005 RMK A01 T01961045  RH  019%=      5-min Rain = 0
KSW1 082007Z 19014KT 20/M04 A3005 RMK A01 T01961042  RH  020%=      5-min Rain = 0
KSW1 082008Z 18021KT 20/M04 A3005 RMK A01 T01971043  RH  019%=      5-min Rain = 0
KSW1 082009Z 18019KT 20/M04 A3005 RMK A01 T01971043  RH  019%=      5-min Rain = 0
KSW1 082010Z 19020KT 20/M04 A3005 RMK A01 T01951044  RH  019%=      5-min Rain = 0
KSW1 082011Z 18018KT 19/M04 A3005 RMK A01 T01931044  RH  020%=      5-min Rain = 0
KSW1 082012Z 19017KT 19/M04 A3005 RMK A01 T01941041  RH  020%=      5-min Rain = 0
KSW1 082013Z 18013G19KT 20/M05 A3005 RMK A01 T01951045  RH  019%=      5-min Rain = 0
KSW1 082014Z 19011KT 20/M04 A3005 RMK A01 T01951042  RH  020%=      5-min Rain = 0
KSW1 082015Z 19016G23KT 20/M04 A3005 RMK A01 T01971040  RH  020%=      5-min Rain = 0
KSW1 082016Z 19020KT 20/M04 A3004 RMK A01 T01981043  RH  019%=      5-min Rain = 0
KSW1 082017Z 21018KT 20/M05 A3004 RMK A01 T01951046  RH  019%=      5-min Rain = 0
KSW1 082018Z 20013KT 19/M04 A3004 RMK A01 T01941042  RH  020%=      5-min Rain = 0
KSW1 082019Z 20014G21KT 20/M04 A3004 RMK A01 T01951042  RH  020%=      5-min Rain = 0
KSW1 082020Z 20017KT 20/M04 A3004 RMK A01 T01971041  RH  020%=      5-min Rain = 0
KSW1 082021Z 18019G24KT 20/M04 A3004 RMK A01 T01991041  RH  020%=      5-min Rain = 0
KSW1 082022Z 18018KT 20/M04 A3004 RMK A01 T01981044  RH  019%=      5-min Rain = 0
KSW1 082023Z 19015G20KT 20/M04 A3004 RMK A01 T01971043  RH  019%=      5-min Rain = 0
KSW1 082024Z 19016G21KT 20/M05 A3004 RMK A01 T01961046  RH  019%=      5-min Rain = 0
KSW1 082025Z 18017G22KT 20/M04 A3004 RMK A01 T01961044  RH  019%=      5-min Rain = 0
KSW1 082026Z 19015G20KT 20/M05 A3004 RMK A01 T01971045  RH  019%=      5-min Rain = 0
KSW1 082027Z 18017KT 20/M04 A3004 RMK A01 T01971042  RH  019%=      5-min Rain = 0
KSW1 082028Z 19016KT 20/M04 A3004 RMK A01 T01991042  RH  019%=      5-min Rain = 0
KSW1 082029Z 19022KT 20/M04 A3004 RMK A01 T02011042  RH  019%=      5-min Rain = 0
KSW1 082030Z 19019KT 20/M05 A3004 RMK A01 T02011048  RH  018%=      5-min Rain = 0
KSW1 082031Z 20015KT 20/M05 A3004 RMK A01 T01991048  RH  018%=      5-min Rain = 0
KSW1 082032Z 18018KT 20/M05 A3004 RMK A01 T02001048  RH  018%=      5-min Rain = 0
KSW1 082033Z 18013KT 20/M05 A3004 RMK A01 T01981049  RH  018%=      5-min Rain = 0
KSW1 082034Z 20016KT 20/M05 A3003 RMK A01 T01971048  RH  019%=      5-min Rain = 0
KSW1 082035Z 19016G22KT 20/M04 A3003 RMK A01 T01981044  RH  019%=      5-min Rain = 0
KSW1 082036Z 19017KT 20/M04 A3003 RMK A01 T02021044  RH  019%=      5-min Rain = 0
KSW1 082037Z 18017KT 20/M05 A3003 RMK A01 T02011046  RH  018%=      5-min Rain = 0
KSW1 082038Z 18022G27KT 20/M05 A3003 RMK A01 T02011046  RH  018%=      5-min Rain = 0
KSW1 082039Z 19022G28KT 20/M05 A3003 RMK A01 T01971052  RH  018%=      5-min Rain = 0
KSW1 082040Z 18020KT 20/M05 A3003 RMK A01 T01961050  RH  019%=      5-min Rain = 0
KSW1 082041Z 18019KT 20/M05 A3003 RMK A01 T01961051  RH  018%=      5-min Rain = 0
KSW1 082042Z 19020G27KT 20/M05 A3003 RMK A01 T01951050  RH  019%=      5-min Rain = 0
KSW1 082043Z 18016G21KT 20/M05 A3003 RMK A01 T01961049  RH  019%=      5-min Rain = 0
KSW1 082044Z 17018KT 20/M05 A3003 RMK A01 T01971048  RH  019%=      5-min Rain = 0
KSW1 082045Z 20019KT 20/M05 A3003 RMK A01 T01971049  RH  018%=      5-min Rain = 0
KSW1 082046Z 19017G22KT 20/M05 A3003 RMK A01 T01981049  RH  018%=      5-min Rain = 0
KSW1 082047Z 19021KT 20/M05 A3003 RMK A01 T01981047  RH  019%=      5-min Rain = 0
KSW1 082048Z 19020KT 20/M05 A3003 RMK A01 T01981049  RH  018%=      5-min Rain = 0
KSW1 082049Z 18019KT 20/M05 A3003 RMK A01 T01961051  RH  018%=      5-min Rain = 0
KSW1 082050Z 18021KT 20/M05 A3003 RMK A01 T01951052  RH  018%=      5-min Rain = 0
KSW1 082051Z 18016KT 20/M05 A3003 RMK A01 T01951053  RH  018%=      5-min Rain = 0
KSW1 082052Z 19015G22KT 20/M05 A3003 RMK A01 T01971049  RH  019%=      5-min Rain = 0
KSW1 082053Z 18018KT 20/M05 A3003 RMK A01 T01991048  RH  018%=      5-min Rain = 0
KSW1 082054Z 18017KT 20/M05 A3003 RMK A01 T02001051  RH  018%=      5-min Rain = 0
KSW1 082055Z 17018KT 20/M05 A3003 RMK A01 T02001050  RH  018%=      5-min Rain = 0
KSW1 082056Z 17017KT 20/M05 A3003 RMK A01 T02011049  RH  018%=      5-min Rain = 0
KSW1 082057Z 17017KT 20/M05 A3003 RMK A01 T02031049  RH  018%=      5-min Rain = 0
KSW1 082058Z 17017KT 20/M05 A3003 RMK A01 T02041051  RH  018%=      5-min Rain = 0
KSW1 082059Z 18017KT 21/M05 A3003 RMK A01 T02051050  RH  018%=      5-min Rain = 0
KSW1 082100Z 19018G23KT 20/M05 A3003 RMK A01 T02041048  RH  018%=      5-min Rain = 0
KSW1 082101Z 19017KT 20/M05 A3003 RMK A01 T02041051  RH  017%=      5-min Rain = 0
KSW1 082102Z 19016KT 20/M05 A3003 RMK A01 T02021052  RH  018%=      5-min Rain = 0
KSW1 082103Z 17015KT 20/M05 A3003 RMK A01 T02021050  RH  018%=      5-min Rain = 0
KSW1 082104Z 17015KT 20/M05 A3002 RMK A01 T02021050  RH  018%=      5-min Rain = 0
KSW1 082105Z 19016G22KT 20/M05 A3002 RMK A01 T02041048  RH  018%=      5-min Rain = 0
KSW1 082106Z 20019G25KT 21/M05 A3002 RMK A01 T02051050  RH  017%=      5-min Rain = 0
KSW1 082107Z 19018G23KT 21/M05 A3002 RMK A01 T02051049  RH  018%=      5-min Rain = 0
KSW1 082108Z 19019KT 20/M05 A3002 RMK A01 T02031052  RH  018%=      5-min Rain = 0
KSW1 082109Z 19014KT 20/M05 A3002 RMK A01 T02001052  RH  018%=      5-min Rain = 0
KSW1 082110Z 19020G25KT 20/M05 A3002 RMK A01 T02021048  RH  018%=      5-min Rain = 0
KSW1 082111Z 19019KT 20/M05 A3002 RMK A01 T02031051  RH  018%=      5-min Rain = 0
KSW1 082112Z 19015KT 20/M05 A3002 RMK A01 T02031051  RH  018%=      5-min Rain = 0
KSW1 082113Z 19015KT 20/M05 A3002 RMK A01 T02031050  RH  018%=      5-min Rain = 0
KSW1 082114Z 18018KT 20/M05 A3001 RMK A01 T02041049  RH  018%=      5-min Rain = 0
KSW1 082115Z 17016KT 21/M05 A3001 RMK A01 T02051048  RH  018%=      5-min Rain = 0
KSW1 082116Z 17020KT 21/M05 A3001 RMK A01 T02071048  RH  018%=      5-min Rain = 0
KSW1 082117Z 18019KT 21/M05 A3001 RMK A01 T02061050  RH  017%=      5-min Rain = 0
KSW1 082118Z 18016G21KT 21/M05 A3001 RMK A01 T02061048  RH  018%=      5-min Rain = 0
KSW1 082119Z 19019KT 21/M05 A3001 RMK A01 T02081047  RH  018%=      5-min Rain = 0
KSW1 082120Z 19018KT 21/M05 A3001 RMK A01 T02081048  RH  017%=      5-min Rain = 0
KSW1 082121Z 19018KT 21/M05 A3001 RMK A01 T02051051  RH  017%=      5-min Rain = 0
KSW1 082122Z 18018KT 20/M05 A3001 RMK A01 T02021051  RH  018%=      5-min Rain = 0
KSW1 082123Z 17017KT 20/M05 A3001 RMK A01 T02021049  RH  018%=      5-min Rain = 0
KSW1 082124Z 18020G26KT 20/M05 A3001 RMK A01 T02021050  RH  018%=      5-min Rain = 0
KSW1 082125Z 18016G21KT 20/M05 A3001 RMK A01 T02011049  RH  018%=      5-min Rain = 0
KSW1 082126Z 18014KT 20/M05 A3001 RMK A01 T02031047  RH  018%=      5-min Rain = 0
KSW1 082127Z 18019KT 21/M05 A3001 RMK A01 T02051047  RH  018%=      5-min Rain = 0
KSW1 082128Z 18018KT 21/M05 A3001 RMK A01 T02051049  RH  018%=      5-min Rain = 0
KSW1 082129Z 17019KT 20/M05 A3001 RMK A01 T02041049  RH  018%=      5-min Rain = 0
KSW1 082130Z 18016G21KT 20/M05 A3001 RMK A01 T02041049  RH  018%=      5-min Rain = 0
KSW1 082131Z 18020KT 21/M05 A30 RMK A01 T02051049  RH  018%=      5-min Rain = 0
KSW1 082132Z 18015G20KT 21/M05 A3001 RMK A01 T02051050  RH  018%=      5-min Rain = 0
KSW1 082133Z 17017G22KT 21/M05 A3001 RMK A01 T02051048  RH  018%=      5-min Rain = 0
KSW1 082134Z 18021KT 21/M05 A30 RMK A01 T02051050  RH  018%=      5-min Rain = 0
KSW1 082135Z 17022KT 21/M05 A30 RMK A01 T02051049  RH  018%=      5-min Rain = 0
KSW1 082136Z 17020KT 20/M05 A30 RMK A01 T02041051  RH  017%=      5-min Rain = 0
KSW1 082137Z 18020KT 20/M05 A3001 RMK A01 T02021051  RH  018%=      5-min Rain = 0
KSW1 082138Z 18018KT 20/M05 A3001 RMK A01 T02011051  RH  018%=      5-min Rain = 0
KSW1 082139Z 18018KT 20/M05 A3001 RMK A01 T02001053  RH  018%=      5-min Rain = 0
KSW1 082140Z 19017KT 20/M05 A3001 RMK A01 T02011050  RH  018%=      5-min Rain = 0
KSW1 082141Z 18016KT 20/M05 A3001 RMK A01 T02041049  RH  018%=      5-min Rain = 0
KSW1 082142Z 18014KT 20/M05 A3001 RMK A01 T02041051  RH  017%=      5-min Rain = 0
KSW1 082143Z 18014KT 20/M05 A3001 RMK A01 T02041049  RH  018%=      5-min Rain = 0
KSW1 082144Z 18012KT 21/M05 A3001 RMK A01 T02061046  RH  018%=      5-min Rain = 0
KSW1 082145Z 18016KT 21/M05 A30 RMK A01 T02091046  RH  018%=      5-min Rain = 0
KSW1 082146Z 17019KT 21/M05 A30 RMK A01 T02081049  RH  017%=      5-min Rain = 0
KSW1 082147Z 18019KT 20/M05 A30 RMK A01 T02041054  RH  017%=      5-min Rain = 0
KSW1 082148Z 17017G22KT 20/M05 A30 RMK A01 T02011054  RH  017%=      5-min Rain = 0
KSW1 082149Z 17020G25KT 20/M05 A30 RMK A01 T02011053  RH  018%=      5-min Rain = 0
KSW1 082150Z 19022KT 20/M05 A30 RMK A01 T02031053  RH  017%=      5-min Rain = 0
KSW1 082151Z 18019KT 20/M05 A30 RMK A01 T02031053  RH  017%=      5-min Rain = 0
KSW1 082152Z 18018G23KT 20/M05 A30 RMK A01 T02041050  RH  018%=      5-min Rain = 0
KSW1 082153Z 18016G25KT 21/M05 A30 RMK A01 T02051051  RH  017%=      5-min Rain = 0
KSW1 082154Z 19022KT 20/M05 A30 RMK A01 T02041052  RH  017%=      5-min Rain = 0
KSW1 082155Z 18019KT 20/M06 A30 RMK A01 T02021055  RH  017%=      5-min Rain = 0
KSW1 082156Z 18016G21KT 20/M05 A30 RMK A01 T02011053  RH  018%=      5-min Rain = 0
KSW1 082157Z 17017G22KT 20/M05 A30 RMK A01 T02011054  RH  017%=      5-min Rain = 0
KSW1 082158Z 17021KT 20/M05 A30 RMK A01 T02011054  RH  017%=      5-min Rain = 0
KSW1 082159Z 18021KT 20/M06 A30 RMK A01 T02011055  RH  017%=      5-min Rain = 0
KSW1 082200Z 18021G26KT 20/M05 A30 RMK A01 T02021053  RH  018%=      5-min Rain = 0
KSW1 082201Z 18021KT 20/M05 A30 RMK A01 T02031054  RH  017%=      5-min Rain = 0
KSW1 082202Z 20014KT 20/M06 A30 RMK A01 T02021055  RH  017%=      5-min Rain = 0
KSW1 082203Z 19014KT 20/M05 A30 RMK A01 T02021052  RH  018%=      5-min Rain = 0
KSW1 082204Z 18013KT 20/M05 A30 RMK A01 T02031049  RH  018%=      5-min Rain = 0
KSW1 082205Z 18014KT 20/M05 A30 RMK A01 T02041049  RH  018%=      5-min Rain = 0
KSW1 082206Z 18014KT 20/M05 A30 RMK A01 T02031051  RH  018%=      5-min Rain = 0
KSW1 082207Z 19012KT 20/M05 A30 RMK A01 T02011052  RH  018%=      5-min Rain = 0
KSW1 082208Z 18017KT 20/M05 A2999 RMK A01 T02001051  RH  018%=      5-min Rain = 0
KSW1 082209Z 18014KT 20/M05 A2999 RMK A01 T02001051  RH  018%=      5-min Rain = 0
KSW1 082210Z 18018KT 20/M05 A2999 RMK A01 T01991051  RH  018%=      5-min Rain = 0
KSW1 082211Z 18018KT 20/M06 A2999 RMK A01 T01981056  RH  018%=      5-min Rain = 0
KSW1 082212Z 18016KT 20/M06 A2999 RMK A01 T01961055  RH  018%=      5-min Rain = 0
KSW1 082213Z 18014KT 20/M05 A2999 RMK A01 T01961053  RH  018%=      5-min Rain = 0
KSW1 082214Z 17015KT 20/M05 A2999 RMK A01 T01971051  RH  018%=      5-min Rain = 0
KSW1 082215Z 17017KT 20/M05 A2999 RMK A01 T01981052  RH  018%=      5-min Rain = 0
KSW1 082216Z 18017G22KT 20/M06 A2999 RMK A01 T01971056  RH  018%=      5-min Rain = 0
KSW1 082217Z 18016KT 20/M06 A2999 RMK A01 T01961055  RH  018%=      5-min Rain = 0
KSW1 082218Z 18018KT 20/M06 A2999 RMK A01 T01961055  RH  018%=      5-min Rain = 0
KSW1 082219Z 18017KT 20/M06 A2999 RMK A01 T01971055  RH  018%=      5-min Rain = 0
KSW1 082220Z 19018G23KT 20/M06 A2999 RMK A01 T01971055  RH  018%=      5-min Rain = 0
KSW1 082221Z 18020KT 20/M05 A2999 RMK A01 T01961054  RH  018%=      5-min Rain = 0
KSW1 082222Z 17022KT 20/M05 A2999 RMK A01 T01961054  RH  018%=      5-min Rain = 0
KSW1 082223Z 18017G22KT 20/M06 A2999 RMK A01 T01961055  RH  018%=      5-min Rain = 0
KSW1 082224Z 18014KT 20/M05 A2999 RMK A01 T01971051  RH  018%=      5-min Rain = 0
KSW1 082225Z 18014G19KT 20/M05 A2999 RMK A01 T01981048  RH  019%=      5-min Rain = 0
KSW1 082226Z 19013KT 20/M05 A2999 RMK A01 T01991046  RH  019%=      5-min Rain = 0
KSW1 082227Z 18014KT 20/M04 A2999 RMK A01 T02001044  RH  019%=      5-min Rain = 0
KSW1 082228Z 19014G20KT 20/M05 A2999 RMK A01 T02001046  RH  019%=      5-min Rain = 0
KSW1 082229Z 18019G25KT 20/M05 A2998 RMK A01 T02001050  RH  018%=      5-min Rain = 0
KSW1 082230Z 18018G23KT 20/M05 A2999 RMK A01 T01971053  RH  018%=      5-min Rain = 0
KSW1 082231Z 18020KT 20/M05 A2999 RMK A01 T01961051  RH  018%=      5-min Rain = 0
KSW1 082232Z 18016G21KT 20/M05 A2999 RMK A01 T01971051  RH  018%=      5-min Rain = 0
KSW1 082233Z 18018G25KT 20/M05 A2999 RMK A01 T01981047  RH  019%=      5-min Rain = 0
KSW1 082234Z 18019KT 20/M05 A2999 RMK A01 T01991050  RH  018%=      5-min Rain = 0
KSW1 082235Z 18020KT 20/M05 A2999 RMK A01 T01991051  RH  018%=      5-min Rain = 0
KSW1 082236Z 18018KT 20/M05 A2999 RMK A01 T01991052  RH  018%=      5-min Rain = 0
KSW1 082237Z 19016KT 20/M05 A2999 RMK A01 T01991051  RH  018%=      5-min Rain = 0
KSW1 082238Z 18018KT 20/M05 A2999 RMK A01 T02001051  RH  018%=      5-min Rain = 0
KSW1 082239Z 19018KT 20/M05 A2999 RMK A01 T02001052  RH  018%=      5-min Rain = 0
KSW1 082240Z 19016G21KT 20/M05 A2999 RMK A01 T01991054  RH  018%=      5-min Rain = 0
KSW1 082241Z 19018KT 20/M06 A2999 RMK A01 T01981055  RH  018%=      5-min Rain = 0
KSW1 082242Z 18018KT 20/M06 A2999 RMK A01 T01961055  RH  018%=      5-min Rain = 0
KSW1 082243Z 19016KT 20/M06 A2999 RMK A01 T01961055  RH  018%=      5-min Rain = 0
KSW1 082244Z 20015KT 20/M05 A2998 RMK A01 T01951054  RH  018%=      5-min Rain = 0
KSW1 082245Z 18017KT 20/M05 A2999 RMK A01 T01971052  RH  018%=      5-min Rain = 0
KSW1 082246Z 19019KT 20/M05 A2998 RMK A01 T01991053  RH  018%=      5-min Rain = 0
KSW1 082247Z 18017KT 20/M06 A2998 RMK A01 T01991055  RH  018%=      5-min Rain = 0
KSW1 082248Z 18016G21KT 20/M05 A2998 RMK A01 T01991053  RH  018%=      5-min Rain = 0
KSW1 082249Z 18016KT 20/M05 A2998 RMK A01 T02001053  RH  018%=      5-min Rain = 0
KSW1 082250Z 18018G23KT 20/M05 A2998 RMK A01 T02001053  RH  018%=      5-min Rain = 0
KSW1 082251Z 17017G22KT 20/M05 A2998 RMK A01 T01991054  RH  018%=      5-min Rain = 0
KSW1 082252Z 18019G24KT 20/M06 A2998 RMK A01 T01991056  RH  017%=      5-min Rain = 0
KSW1 082253Z 18019KT 20/M06 A2998 RMK A01 T01971055  RH  018%=      5-min Rain = 0
KSW1 082254Z 19019KT 20/M06 A2998 RMK A01 T01961057  RH  018%=      5-min Rain = 0
KSW1 082255Z 19015KT 20/M05 A2998 RMK A01 T01961053  RH  018%=      5-min Rain = 0
KSW1 082256Z 19017G22KT 20/M05 A2998 RMK A01 T01971051  RH  018%=      5-min Rain = 0
KSW1 082257Z 19020G25KT 20/M06 A2998 RMK A01 T01971057  RH  017%=      5-min Rain = 0
KSW1 082258Z 19019KT 20/M06 A2998 RMK A01 T01951058  RH  018%=      5-min Rain = 0
KSW1 082259Z 19017KT 19/M06 A2998 RMK A01 T01941058  RH  018%=      5-min Rain = 0
KSW1 082300Z 18018KT 19/M06 A2998 RMK A01 T01941058  RH  018%=      5-min Rain = 0
KSW1 082301Z 17019G24KT 19/M06 A2998 RMK A01 T01931060  RH  018%=      5-min Rain = 0
KSW1 082302Z 17016KT 19/M06 A2998 RMK A01 T01921060  RH  018%=      5-min Rain = 0
KSW1 082303Z 18017KT 19/M06 A2998 RMK A01 T01921060  RH  018%=      5-min Rain = 0
KSW1 082304Z 19018KT 19/M06 A2998 RMK A01 T01911061  RH  018%=      5-min Rain = 0
KSW1 082305Z 17019KT 19/M06 A2998 RMK A01 T01901061  RH  018%=      5-min Rain = 0
KSW1 082306Z 17020KT 19/M06 A2998 RMK A01 T01891061  RH  018%=      5-min Rain = 0
KSW1 082307Z 17018KT 19/M06 A2998 RMK A01 T01891061  RH  018%=      5-min Rain = 0
KSW1 082308Z 16018KT 19/M06 A2998 RMK A01 T01881063  RH  018%=      5-min Rain = 0
KSW1 082309Z 17014KT 19/M06 A2998 RMK A01 T01871063  RH  018%=      5-min Rain = 0
KSW1 082310Z 17017G22KT 19/M06 A2998 RMK A01 T01881061  RH  018%=      5-min Rain = 0
KSW1 082311Z 18016KT 19/M06 A2998 RMK A01 T01881061  RH  018%=      5-min Rain = 0
KSW1 082312Z 17016KT 19/M06 A2998 RMK A01 T01881061  RH  018%=      5-min Rain = 0
KSW1 082313Z 17018G23KT 19/M06 A2998 RMK A01 T01881062  RH  018%=      5-min Rain = 0
KSW1 082314Z 17020KT 19/M06 A2998 RMK A01 T01881063  RH  018%=      5-min Rain = 0
KSW1 082315Z 17017G22KT 19/M06 A2998 RMK A01 T01881063  RH  018%=      5-min Rain = 0
KSW1 082316Z 17016KT 19/M06 A2998 RMK A01 T01881063  RH  018%=      5-min Rain = 0
KSW1 082317Z 18015KT 19/M06 A2998 RMK A01 T01881061  RH  018%=      5-min Rain = 0
KSW1 082318Z 18013G18KT 19/M06 A2998 RMK A01 T01881060  RH  018%=      5-min Rain = 0
KSW1 082319Z 18013KT 19/M06 A2998 RMK A01 T01881056  RH  019%=      5-min Rain = 0
KSW1 082320Z 18012KT 19/M06 A2998 RMK A01 T01881057  RH  018%=      5-min Rain = 0
KSW1 082321Z 17012KT 19/M06 A2998 RMK A01 T01881057  RH  018%=      5-min Rain = 0
KSW1 082322Z 17016KT 19/M06 A2998 RMK A01 T01881058  RH  018%=      5-min Rain = 0
KSW1 082323Z 18018G23KT 19/M06 A2998 RMK A01 T01871061  RH  018%=      5-min Rain = 0
KSW1 082324Z 18020KT 19/M06 A2998 RMK A01 T01861062  RH  018%=      5-min Rain = 0
KSW1 082325Z 17016KT 19/M06 A2998 RMK A01 T01851064  RH  018%=      5-min Rain = 0
KSW1 082326Z 17017KT 19/M06 A2998 RMK A01 T01851064  RH  018%=      5-min Rain = 0
KSW1 082327Z 17016KT 19/M07 A2998 RMK A01 T01851065  RH  018%=      5-min Rain = 0
KSW1 082328Z 17018KT 18/M07 A2998 RMK A01 T01841065  RH  018%=      5-min Rain = 0
KSW1 082329Z 18017KT 18/M07 A2998 RMK A01 T01841065  RH  018%=      5-min Rain = 0
KSW1 082330Z 18017KT 18/M07 A2998 RMK A01 T01831065  RH  018%=      5-min Rain = 0
KSW1 082331Z 16018G24KT 18/M06 A2998 RMK A01 T01831064  RH  018%=      5-min Rain = 0
KSW1 082332Z 18020KT 18/M07 A2998 RMK A01 T01821066  RH  018%=      5-min Rain = 0
KSW1 082333Z 17019KT 18/M07 A2998 RMK A01 T01821066  RH  018%=      5-min Rain = 0
KSW1 082334Z 17019KT 18/M07 A2998 RMK A01 T01811066  RH  018%=      5-min Rain = 0
KSW1 082335Z 17017KT 18/M07 A2998 RMK A01 T01811066  RH  018%=      5-min Rain = 0
KSW1 082336Z 17019KT 18/M07 A2998 RMK A01 T01811066  RH  018%=      5-min Rain = 0
KSW1 082337Z 17015KT 18/M07 A2998 RMK A01 T01811065  RH  018%=      5-min Rain = 0
KSW1 082338Z 18013G18KT 18/M06 A2998 RMK A01 T01801064  RH  018%=      5-min Rain = 0
KSW1 082339Z 18017KT 18/M06 A2998 RMK A01 T01801064  RH  018%=      5-min Rain = 0
KSW1 082340Z 17015G20KT 18/M06 A2998 RMK A01 T01801063  RH  019%=      5-min Rain = 0
KSW1 082341Z 17017G22KT 18/M06 A2998 RMK A01 T01801063  RH  019%=      5-min Rain = 0
KSW1 082342Z 16016KT 18/M06 A2998 RMK A01 T01791064  RH  018%=      5-min Rain = 0
KSW1 082343Z 17016G21KT 18/M07 A2998 RMK A01 T01791065  RH  018%=      5-min Rain = 0
KSW1 082344Z 18016KT 18/M07 A2998 RMK A01 T01791065  RH  018%=      5-min Rain = 0
KSW1 082345Z 17019KT 18/M06 A2998 RMK A01 T01791063  RH  019%=      5-min Rain = 0
KSW1 082346Z 18020G25KT 18/M07 A2998 RMK A01 T01781065  RH  018%=      5-min Rain = 0
KSW1 082347Z 19015KT 18/M07 A2998 RMK A01 T01781065  RH  019%=      5-min Rain = 0
KSW1 082348Z 19018KT 18/M06 A2998 RMK A01 T01771064  RH  019%=      5-min Rain = 0
KSW1 082349Z 18019KT 18/M07 A2998 RMK A01 T01781065  RH  019%=      5-min Rain = 0
KSW1 082350Z 19014KT 18/M07 A2998 RMK A01 T01771065  RH  019%=      5-min Rain = 0
KSW1 082351Z 18015KT 18/M06 A2998 RMK A01 T01771063  RH  019%=      5-min Rain = 0
KSW1 082352Z 18013KT 18/M06 A2998 RMK A01 T01771062  RH  019%=      5-min Rain = 0
KSW1 082353Z 18012KT 18/M06 A2998 RMK A01 T01761062  RH  019%=      5-min Rain = 0
KSW1 082354Z 17013KT 18/M06 A2998 RMK A01 T01761063  RH  019%=      5-min Rain = 0
KSW1 082355Z 17015KT 18/M06 A2998 RMK A01 T01761061  RH  019%=      5-min Rain = 0
KSW1 082356Z 18017KT 18/M06 A2998 RMK A01 T01761061  RH  019%=      5-min Rain = 0
KSW1 082357Z 18015G20KT 18/M06 A2999 RMK A01 T01751061  RH  019%=      5-min Rain = 0
KSW1 082358Z 18014KT 18/M06 A2999 RMK A01 T01751061  RH  019%=      5-min Rain = 0
KSW1 082359Z 18016KT 17/M06 A2999 RMK A01 T01741061  RH  020%=      5-min Rain = 0
KSW1 090000Z 18015KT 17/M06 A2999 RMK A01 T01741061  RH  019%=      5-min Rain = 0
KSW1 090001Z 17018KT 17/M06 A2999 RMK A01 T01731062  RH  019%=      5-min Rain = 0
KSW1 090002Z 18019KT 17/M06 A2999 RMK A01 T01731063  RH  019%=      5-min Rain = 0
KSW1 090003Z 17018KT 17/M06 A2999 RMK A01 T01731063  RH  019%=      5-min Rain = 0
KSW1 090004Z 17015KT 17/M06 A2999 RMK A01 T01731063  RH  019%=      5-min Rain = 0
KSW1 090005Z 17014KT 17/M06 A2999 RMK A01 T01731063  RH  019%=      5-min Rain = 0
KSW1 090006Z 18018KT 17/M06 A2999 RMK A01 T01721062  RH  020%=      5-min Rain = 0
KSW1 090007Z 18014KT 17/M06 A2999 RMK A01 T01721062  RH  020%=      5-min Rain = 0
KSW1 090008Z 18014KT 17/M06 A2999 RMK A01 T01721061  RH  020%=      5-min Rain = 0
KSW1 090009Z 19018KT 17/M06 A2999 RMK A01 T01711062  RH  020%=      5-min Rain = 0
KSW1 090010Z 18016KT 17/M06 A2999 RMK A01 T01711062  RH  020%=      5-min Rain = 0
KSW1 090011Z 18015G20KT 17/M06 A2999 RMK A01 T01711062  RH  020%=      5-min Rain = 0
KSW1 090012Z 18015G20KT 17/M06 A2999 RMK A01 T01711062  RH  020%=      5-min Rain = 0
KSW1 090013Z 17017G22KT 17/M06 A2999 RMK A01 T01711062  RH  020%=      5-min Rain = 0
KSW1 090014Z 18015KT 17/M06 A2999 RMK A01 T01701063  RH  020%=      5-min Rain = 0
KSW1 090015Z 18017KT 17/M06 A2999 RMK A01 T01701062  RH  020%=      5-min Rain = 0
KSW1 090016Z 18013KT 17/M06 A2999 RMK A01 T01701062  RH  020%=      5-min Rain = 0
KSW1 090017Z 18016KT 17/M06 A2999 RMK A01 T01691062  RH  020%=      5-min Rain = 0
KSW1 090018Z 18015KT 17/M06 A2999 RMK A01 T01681062  RH  020%=      5-min Rain = 0
KSW1 090019Z 18014KT 17/M06 A2999 RMK A01 T01681062  RH  020%=      5-min Rain = 0
KSW1 090020Z 18016KT 17/M06 A2999 RMK A01 T01671062  RH  020%=      5-min Rain = 0
KSW1 090021Z 18016KT 17/M06 A2999 RMK A01 T01671062  RH  020%=      5-min Rain = 0
KSW1 090022Z 18016KT 17/M06 A2999 RMK A01 T01671062  RH  020%=      5-min Rain = 0
KSW1 090023Z 18016KT 17/M06 A2999 RMK A01 T01661063  RH  020%=      5-min Rain = 0
KSW1 090024Z 18017KT 17/M06 A2999 RMK A01 T01661063  RH  020%=      5-min Rain = 0
KSW1 090025Z 18017G23KT 17/M06 A2999 RMK A01 T01661064  RH  020%=      5-min Rain = 0
KSW1 090026Z 18019KT 17/M06 A2999 RMK A01 T01661064  RH  020%=      5-min Rain = 0
KSW1 090027Z 18016KT 17/M06 A2999 RMK A01 T01651064  RH  020%=      5-min Rain = 0
KSW1 090028Z 18013KT 17/M06 A2999 RMK A01 T01651063  RH  020%=      5-min Rain = 0
KSW1 090029Z 18013KT 16/M06 A2999 RMK A01 T01641062  RH  021%=      5-min Rain = 0
KSW1 090030Z 19019KT 16/M06 A2999 RMK A01 T01631063  RH  021%=      5-min Rain = 0
KSW1 090031Z 18017KT 16/M06 A2999 RMK A01 T01631064  RH  020%=      5-min Rain = 0
KSW1 090032Z 18017KT 16/M06 A2999 RMK A01 T01631064  RH  021%=      5-min Rain = 0
KSW1 090033Z 18013KT 16/M06 A2999 RMK A01 T01621063  RH  021%=      5-min Rain = 0
KSW1 090034Z 18017KT 16/M06 A2999 RMK A01 T01611063  RH  021%=      5-min Rain = 0
KSW1 090035Z 18016KT 16/M06 A2999 RMK A01 T01611063  RH  021%=      5-min Rain = 0
KSW1 090036Z 19015KT 16/M06 A2999 RMK A01 T01611063  RH  021%=      5-min Rain = 0
KSW1 090037Z 18014KT 16/M06 A2999 RMK A01 T01611063  RH  021%=      5-min Rain = 0
KSW1 090038Z 19013G18KT 16/M06 A2999 RMK A01 T01601063  RH  021%=      5-min Rain = 0
KSW1 090039Z 18013KT 16/M06 A2999 RMK A01 T01601062  RH  021%=      5-min Rain = 0
KSW1 090040Z 18014KT 16/M06 A2999 RMK A01 T01591063  RH  021%=      5-min Rain = 0
KSW1 090041Z 18013KT 16/M06 A2999 RMK A01 T01591063  RH  021%=      5-min Rain = 0
KSW1 090042Z 18013KT 16/M06 A2999 RMK A01 T01581063  RH  021%=      5-min Rain = 0
KSW1 090043Z 18013KT 16/M06 A2999 RMK A01 T01581063  RH  021%=      5-min Rain = 0
KSW1 090044Z 18014KT 16/M06 A2999 RMK A01 T01571063  RH  021%=      5-min Rain = 0
KSW1 090045Z 18011KT 16/M06 A2999 RMK A01 T01571063  RH  021%=      5-min Rain = 0
KSW1 090046Z 18012KT 16/M06 A2999 RMK A01 T01561062  RH  022%=      5-min Rain = 0
KSW1 090047Z 17013KT 16/M06 A2999 RMK A01 T01561062  RH  022%=      5-min Rain = 0
KSW1 090048Z 17011KT 16/M06 A2999 RMK A01 T01561062  RH  022%=      5-min Rain = 0
KSW1 090049Z 17012KT 16/M06 A2999 RMK A01 T01551062  RH  022%=      5-min Rain = 0
KSW1 090050Z 17012KT 15/M06 A2999 RMK A01 T01541062  RH  022%=      5-min Rain = 0
KSW1 090051Z 17014KT 15/M06 A2999 RMK A01 T01541061  RH  022%=      5-min Rain = 0
KSW1 090052Z 17013KT 15/M06 A2999 RMK A01 T01541061  RH  022%=      5-min Rain = 0
KSW1 090053Z 17012KT 15/M06 A2999 RMK A01 T01541061  RH  022%=      5-min Rain = 0
KSW1 090054Z 17014KT 15/M06 A2999 RMK A01 T01541062  RH  022%=      5-min Rain = 0
KSW1 090055Z 17014KT 15/M06 A2999 RMK A01 T01541061  RH  022%=      5-min Rain = 0
KSW1 090056Z 18013KT 15/M06 A2999 RMK A01 T01531061  RH  022%=      5-min Rain = 0
KSW1 090057Z 18014KT 15/M06 A2999 RMK A01 T01531061  RH  022%=      5-min Rain = 0
KSW1 090058Z 17012KT 15/M06 A2999 RMK A01 T01531061  RH  022%=      5-min Rain = 0
KSW1 090059Z 17012KT 15/M06 A2999 RMK A01 T01521060  RH  023%=      5-min Rain = 0
KSW1 090100Z 17013KT 15/M06 A2999 RMK A01 T01511060  RH  023%=      5-min Rain = 0
KSW1 090101Z 17014KT 15/M06 A2999 RMK A01 T01511060  RH  023%=      5-min Rain = 0
KSW1 090102Z 17013KT 15/M06 A2999 RMK A01 T01511059  RH  023%=      5-min Rain = 0
KSW1 090103Z 16013G18KT 15/M06 A2999 RMK A01 T01511059  RH  023%=      5-min Rain = 0
KSW1 090104Z 17015KT 15/M06 A2999 RMK A01 T01501059  RH  023%=      5-min Rain = 0
KSW1 090105Z 18015KT 15/M06 A2999 RMK A01 T01501058  RH  023%=      5-min Rain = 0
KSW1 090106Z 17015KT 15/M06 A2999 RMK A01 T01501059  RH  023%=      5-min Rain = 0
KSW1 090107Z 17014KT 15/M06 A2999 RMK A01 T01501059  RH  023%=      5-min Rain = 0
KSW1 090108Z 18013KT 15/M06 A2999 RMK A01 T01501058  RH  023%=      5-min Rain = 0
KSW1 090109Z 17013KT 15/M06 A2999 RMK A01 T01491058  RH  023%=      5-min Rain = 0
KSW1 090110Z 18014KT 15/M06 A2999 RMK A01 T01491058  RH  024%=      5-min Rain = 0
KSW1 090111Z 18016KT 15/M06 A2999 RMK A01 T01481058  RH  024%=      5-min Rain = 0
KSW1 090112Z 18012KT 15/M06 A2999 RMK A01 T01491058  RH  023%=      5-min Rain = 0
KSW1 090113Z 18015KT 15/M06 A2999 RMK A01 T01481058  RH  024%=      5-min Rain = 0
KSW1 090114Z 18012KT 15/M06 A2999 RMK A01 T01481058  RH  024%=      5-min Rain = 0
KSW1 090115Z 18013KT 15/M06 A2999 RMK A01 T01471058  RH  024%=      5-min Rain = 0
KSW1 090116Z 17012KT 15/M06 A2999 RMK A01 T01461058  RH  024%=      5-min Rain = 0
KSW1 090117Z 18011KT 15/M06 A2999 RMK A01 T01461058  RH  024%=      5-min Rain = 0
KSW1 090118Z 18011KT 15/M06 A2999 RMK A01 T01451058  RH  024%=      5-min Rain = 0
KSW1 090119Z 18013KT 15/M06 A30 RMK A01 T01451058  RH  024%=      5-min Rain = 0
KSW1 090120Z 18012KT 15/M06 A30 RMK A01 T01451058  RH  024%=      5-min Rain = 0
KSW1 090121Z 18013KT 15/M06 A30 RMK A01 T01451058  RH  024%=      5-min Rain = 0
KSW1 090122Z 18012KT 15/M06 A30 RMK A01 T01451057  RH  024%=      5-min Rain = 0
KSW1 090123Z 18012KT 14/M06 A30 RMK A01 T01441058  RH  024%=      5-min Rain = 0
KSW1 090124Z 18014KT 14/M06 A30 RMK A01 T01441058  RH  024%=      5-min Rain = 0
KSW1 090125Z 18012KT 14/M06 A30 RMK A01 T01441059  RH  024%=      5-min Rain = 0
KSW1 090126Z 18012KT 14/M06 A30 RMK A01 T01441058  RH  024%=      5-min Rain = 0
KSW1 090127Z 18013KT 14/M06 A30 RMK A01 T01441058  RH  024%=      5-min Rain = 0
KSW1 090128Z 18011KT 14/M06 A30 RMK A01 T01441058  RH  024%=      5-min Rain = 0
KSW1 090129Z 18012G17KT 14/M06 A30 RMK A01 T01431058  RH  024%=      5-min Rain = 0
KSW1 090130Z 18012KT 14/M06 A30 RMK A01 T01431058  RH  024%=      5-min Rain = 0
KSW1 090131Z 18013KT 14/M06 A30 RMK A01 T01431059  RH  024%=      5-min Rain = 0
KSW1 090132Z 18012KT 14/M06 A30 RMK A01 T01431058  RH  024%=      5-min Rain = 0
KSW1 090133Z 18011KT 14/M06 A30 RMK A01 T01421059  RH  024%=      5-min Rain = 0
KSW1 090134Z 18013KT 14/M06 A30 RMK A01 T01421059  RH  024%=      5-min Rain = 0
KSW1 090135Z 18012KT 14/M06 A30 RMK A01 T01421059  RH  024%=      5-min Rain = 0
KSW1 090136Z 18013KT 14/M06 A30 RMK A01 T01421059  RH  024%=      5-min Rain = 0
KSW1 090137Z 18013KT 14/M06 A30 RMK A01 T01421059  RH  024%=      5-min Rain = 0
KSW1 090138Z 18013KT 14/M06 A30 RMK A01 T01421058  RH  024%=      5-min Rain = 0
KSW1 090139Z 18013KT 14/M06 A30 RMK A01 T01421059  RH  024%=      5-min Rain = 0
KSW1 090140Z 18012KT 14/M06 A30 RMK A01 T01421058  RH  024%=      5-min Rain = 0
KSW1 090141Z 18012KT 14/M06 A30 RMK A01 T01411058  RH  025%=      5-min Rain = 0
KSW1 090142Z 18011KT 14/M06 A30 RMK A01 T01411058  RH  025%=      5-min Rain = 0
KSW1 090143Z 18011KT 14/M06 A30 RMK A01 T01401058  RH  025%=      5-min Rain = 0
KSW1 090144Z 18011KT 14/M06 A30 RMK A01 T01391058  RH  025%=      5-min Rain = 0
KSW1 090145Z 18011KT 14/M06 A30 RMK A01 T01391058  RH  025%=      5-min Rain = 0
KSW1 090146Z 17011KT 14/M06 A30 RMK A01 T01391058  RH  025%=      5-min Rain = 0
KSW1 090147Z 18011KT 14/M06 A30 RMK A01 T01381058  RH  025%=      5-min Rain = 0
KSW1 090148Z 17012KT 14/M06 A30 RMK A01 T01381058  RH  025%=      5-min Rain = 0
KSW1 090149Z 18012KT 14/M06 A30 RMK A01 T01391058  RH  025%=      5-min Rain = 0
KSW1 090150Z 17014KT 14/M06 A30 RMK A01 T01391058  RH  025%=      5-min Rain = 0
KSW1 090151Z 18014KT 14/M06 A30 RMK A01 T01391058  RH  025%=      5-min Rain = 0
KSW1 090152Z 18012KT 14/M06 A30 RMK A01 T01391058  RH  025%=      5-min Rain = 0
KSW1 090153Z 17011KT 14/M06 A30 RMK A01 T01391058  RH  025%=      5-min Rain = 0
KSW1 090154Z 18011KT 14/M06 A30 RMK A01 T01381058  RH  025%=      5-min Rain = 0
KSW1 090155Z 18012KT 14/M06 A30 RMK A01 T01381058  RH  025%=      5-min Rain = 0
KSW1 090156Z 18011KT 14/M06 A30 RMK A01 T01371059  RH  025%=      5-min Rain = 0
KSW1 090157Z 18012KT 14/M06 A30 RMK A01 T01371059  RH  025%=      5-min Rain = 0
KSW1 090158Z 18012KT 14/M06 A30 RMK A01 T01371059  RH  025%=      5-min Rain = 0
KSW1 090159Z 18010KT 14/M06 A3001 RMK A01 T01371058  RH  025%=      5-min Rain = 0
KSW1 090200Z 17010KT 14/M06 A3001 RMK A01 T01371057  RH  025%=      5-min Rain = 0
KSW1 090201Z 17010KT 14/M06 A3001 RMK A01 T01361057  RH  026%=      5-min Rain = 0
KSW1 090202Z 18010KT 14/M06 A3001 RMK A01 T01351057  RH  026%=      5-min Rain = 0
KSW1 090203Z 17010KT 14/M06 A3001 RMK A01 T01351057  RH  026%=      5-min Rain = 0
KSW1 090204Z 17011KT 14/M06 A3001 RMK A01 T01351057  RH  026%=      5-min Rain = 0
KSW1 090205Z 17011KT 14/M06 A3001 RMK A01 T01361057  RH  026%=      5-min Rain = 0
KSW1 090206Z 17011KT 14/M06 A3001 RMK A01 T01361057  RH  026%=      5-min Rain = 0
KSW1 090207Z 17011KT 14/M06 A3001 RMK A01 T01361058  RH  026%=      5-min Rain = 0
KSW1 090208Z 17012KT 14/M06 A3001 RMK A01 T01361058  RH  026%=      5-min Rain = 0
KSW1 090209Z 18011KT 14/M06 A3001 RMK A01 T01361058  RH  025%=      5-min Rain = 0
KSW1 090210Z 17012KT 14/M06 A3001 RMK A01 T01361057  RH  026%=      5-min Rain = 0
KSW1 090211Z 17012KT 14/M06 A3001 RMK A01 T01361058  RH  026%=      5-min Rain = 0
KSW1 090212Z 17012KT 14/M06 A3001 RMK A01 T01361057  RH  026%=      5-min Rain = 0
KSW1 090213Z 18011KT 14/M06 A3001 RMK A01 T01371057  RH  026%=      5-min Rain = 0
KSW1 090214Z 17012KT 14/M06 A3001 RMK A01 T01361057  RH  026%=      5-min Rain = 0
KSW1 090215Z 17011KT 14/M06 A3001 RMK A01 T01361057  RH  026%=      5-min Rain = 0
KSW1 090216Z 17012KT 14/M06 A3001 RMK A01 T01361057  RH  026%=      5-min Rain = 0
KSW1 090217Z 17011KT 14/M06 A3001 RMK A01 T01351058  RH  026%=      5-min Rain = 0
KSW1 090218Z 17013KT 14/M06 A3001 RMK A01 T01351057  RH  026%=      5-min Rain = 0
KSW1 090219Z 17012KT 14/M06 A3001 RMK A01 T01351057  RH  026%=      5-min Rain = 0
KSW1 090220Z 17014KT 14/M06 A30 RMK A01 T01361058  RH  026%=      5-min Rain = 0
KSW1 090221Z 17012KT 14/M06 A30 RMK A01 T01371058  RH  025%=      5-min Rain = 0
KSW1 090222Z 17011KT 14/M06 A30 RMK A01 T01361058  RH  025%=      5-min Rain = 0
KSW1 090223Z 17012KT 14/M06 A30 RMK A01 T01361058  RH  026%=      5-min Rain = 0
KSW1 090224Z 17013KT 14/M06 A30 RMK A01 T01361058  RH  026%=      5-min Rain = 0
KSW1 090225Z 17012KT 14/M06 A30 RMK A01 T01351058  RH  026%=      5-min Rain = 0
KSW1 090226Z 17012KT 14/M06 A30 RMK A01 T01361058  RH  026%=      5-min Rain = 0
KSW1 090227Z 17012KT 14/M06 A30 RMK A01 T01351058  RH  026%=      5-min Rain = 0
KSW1 090228Z 18014KT 14/M06 A30 RMK A01 T01351058  RH  026%=      5-min Rain = 0
KSW1 090229Z 17011KT 14/M06 A30 RMK A01 T01351058  RH  026%=      5-min Rain = 0
KSW1 090230Z 17012KT 14/M06 A30 RMK A01 T01351058  RH  026%=      5-min Rain = 0
KSW1 090231Z 17011KT 14/M06 A30 RMK A01 T01351058  RH  026%=      5-min Rain = 0
KSW1 090232Z 18011KT 13/M06 A30 RMK A01 T01341058  RH  026%=      5-min Rain = 0
KSW1 090233Z 17012KT 13/M06 A30 RMK A01 T01341058  RH  026%=      5-min Rain = 0
KSW1 090234Z 17011KT 13/M06 A30 RMK A01 T01341058  RH  026%=      5-min Rain = 0
KSW1 090235Z 17012KT 13/M06 A3001 RMK A01 T01341058  RH  026%=      5-min Rain = 0
KSW1 090236Z 17012KT 14/M06 A3001 RMK A01 T01351058  RH  026%=      5-min Rain = 0
KSW1 090237Z 17015KT 14/M06 A3001 RMK A01 T01351058  RH  026%=      5-min Rain = 0
KSW1 090238Z 17013KT 14/M06 A3001 RMK A01 T01361058  RH  025%=      5-min Rain = 0
KSW1 090239Z 17013KT 14/M06 A3001 RMK A01 T01361059  RH  025%=      5-min Rain = 0
KSW1 090240Z 17012KT 14/M06 A3001 RMK A01 T01361058  RH  025%=      5-min Rain = 0
KSW1 090241Z 17011KT 14/M06 A3001 RMK A01 T01351058  RH  026%=      5-min Rain = 0
KSW1 090242Z 17012KT 14/M06 A3001 RMK A01 T01351058  RH  026%=      5-min Rain = 0
KSW1 090243Z 17013G18KT 13/M06 A3001 RMK A01 T01341058  RH  026%=      5-min Rain = 0
KSW1 090244Z 17014KT 14/M06 A3001 RMK A01 T01351058  RH  026%=      5-min Rain = 0
KSW1 090245Z 18012KT 14/M06 A3001 RMK A01 T01351058  RH  026%=      5-min Rain = 0
KSW1 090246Z 17013KT 14/M06 A3001 RMK A01 T01361057  RH  026%=      5-min Rain = 0
KSW1 090247Z 17013KT 14/M06 A30 RMK A01 T01351057  RH  026%=      5-min Rain = 0
KSW1 090248Z 17012KT 14/M06 A3001 RMK A01 T01351057  RH  026%=      5-min Rain = 0
KSW1 090249Z 18013KT 14/M06 A3001 RMK A01 T01351057  RH  026%=      5-min Rain = 0
KSW1 090250Z 17014KT 14/M06 A3001 RMK A01 T01351056  RH  026%=      5-min Rain = 0
KSW1 090251Z 18013KT 14/M06 A3001 RMK A01 T01351056  RH  026%=      5-min Rain = 0
KSW1 090252Z 18013KT 14/M06 A3001 RMK A01 T01351056  RH  026%=      5-min Rain = 0
KSW1 090253Z 17014KT 14/M06 A3001 RMK A01 T01351055  RH  026%=      5-min Rain = 0
KSW1 090254Z 17012KT 14/M06 A3001 RMK A01 T01351055  RH  026%=      5-min Rain = 0
KSW1 090255Z 17014KT 14/M05 A3001 RMK A01 T01361054  RH  026%=      5-min Rain = 0
KSW1 090256Z 17013KT 14/M05 A3001 RMK A01 T01351054  RH  026%=      5-min Rain = 0
KSW1 090257Z 17014KT 14/M05 A3001 RMK A01 T01351054  RH  026%=      5-min Rain = 0
KSW1 090258Z 17012KT 14/M05 A3001 RMK A01 T01351054  RH  026%=      5-min Rain = 0
KSW1 090259Z 17012KT 14/M05 A3001 RMK A01 T01351053  RH  027%=      5-min Rain = 0
KSW1 090300Z 17014KT 14/M05 A3001 RMK A01 T01351053  RH  027%=      5-min Rain = 0
KSW1 090301Z 17013KT 14/M05 A3001 RMK A01 T01351053  RH  027%=      5-min Rain = 0
KSW1 090302Z 17013KT 14/M05 A3001 RMK A01 T01351052  RH  027%=      5-min Rain = 0
KSW1 090303Z 17013KT 13/M05 A3001 RMK A01 T01341053  RH  027%=      5-min Rain = 0
KSW1 090304Z 17012KT 13/M05 A3001 RMK A01 T01341052  RH  027%=      5-min Rain = 0
KSW1 090305Z 17013KT 13/M05 A3001 RMK A01 T01341052  RH  027%=      5-min Rain = 0
KSW1 090306Z 18013KT 13/M05 A3001 RMK A01 T01341052  RH  027%=      5-min Rain = 0
KSW1 090307Z 17012KT 13/M05 A3001 RMK A01 T01341052  RH  027%=      5-min Rain = 0
KSW1 090308Z 17014KT 13/M05 A3001 RMK A01 T01341052  RH  027%=      5-min Rain = 0
KSW1 090309Z 17014KT 13/M05 A3001 RMK A01 T01341051  RH  027%=      5-min Rain = 0
KSW1 090310Z 17013KT 13/M05 A3001 RMK A01 T01341051  RH  027%=      5-min Rain = 0
KSW1 090311Z 17012KT 13/M05 A3001 RMK A01 T01341051  RH  027%=      5-min Rain = 0
KSW1 090312Z 17014KT 13/M05 A3001 RMK A01 T01341051  RH  027%=      5-min Rain = 0
KSW1 090313Z 17011KT 13/M05 A3001 RMK A01 T01341051  RH  027%=      5-min Rain = 0
KSW1 090314Z 17012KT 13/M05 A3001 RMK A01 T01331050  RH  028%=      5-min Rain = 0
KSW1 090315Z 17012KT 13/M05 A3001 RMK A01 T01331049  RH  028%=      5-min Rain = 0
KSW1 090316Z 17012KT 13/M05 A3001 RMK A01 T01321049  RH  028%=      5-min Rain = 0
KSW1 090317Z 17012KT 13/M05 A3001 RMK A01 T01321049  RH  028%=      5-min Rain = 0
KSW1 090318Z 18010KT 13/M05 A3001 RMK A01 T01321049  RH  028%=      5-min Rain = 0
KSW1 090319Z 17011KT 13/M05 A3001 RMK A01 T01311049  RH  028%=      5-min Rain = 0
KSW1 090320Z 17010KT 13/M05 A3001 RMK A01 T01311049  RH  028%=      5-min Rain = 0
KSW1 090321Z 17011KT 13/M05 A3001 RMK A01 T01311048  RH  028%=      5-min Rain = 0
KSW1 090322Z 17011KT 13/M05 A3001 RMK A01 T01301048  RH  029%=      5-min Rain = 0
KSW1 090323Z 17012KT 13/M05 A3001 RMK A01 T01301048  RH  029%=      5-min Rain = 0
KSW1 090324Z 17012KT 13/M05 A3001 RMK A01 T01311048  RH  029%=      5-min Rain = 0
KSW1 090325Z 17011KT 13/M05 A3001 RMK A01 T01311048  RH  029%=      5-min Rain = 0
KSW1 090326Z 17012KT 13/M05 A3001 RMK A01 T01311047  RH  028%=      5-min Rain = 0
KSW1 090327Z 17012KT 13/M05 A3001 RMK A01 T01311048  RH  028%=      5-min Rain = 0
KSW1 090328Z 16012KT 13/M05 A3001 RMK A01 T01321047  RH  029%=      5-min Rain = 0
KSW1 090329Z 17012KT 13/M05 A3001 RMK A01 T01321047  RH  029%=      5-min Rain = 0
KSW1 090330Z 17011KT 13/M05 A3001 RMK A01 T01321046  RH  029%=      5-min Rain = 0
KSW1 090331Z 17012KT 13/M05 A3001 RMK A01 T01321046  RH  029%=      5-min Rain = 0
KSW1 090332Z 17011KT 13/M05 A3001 RMK A01 T01321045  RH  029%=      5-min Rain = 0
KSW1 090333Z 17012KT 13/M05 A3001 RMK A01 T01321045  RH  029%=      5-min Rain = 0
KSW1 090334Z 17010KT 13/M04 A3001 RMK A01 T01321044  RH  029%=      5-min Rain = 0
KSW1 090335Z 16014KT 13/M04 A3001 RMK A01 T01311044  RH  029%=      5-min Rain = 0
KSW1 090336Z 17012KT 13/M04 A3001 RMK A01 T01311044  RH  029%=      5-min Rain = 0
KSW1 090337Z 17010KT 13/M04 A3001 RMK A01 T01311043  RH  029%=      5-min Rain = 0
KSW1 090338Z 17013KT 13/M04 A3001 RMK A01 T01311043  RH  030%=      5-min Rain = 0
KSW1 090339Z 17013KT 13/M04 A3001 RMK A01 T01301043  RH  030%=      5-min Rain = 0
KSW1 090340Z 17012KT 13/M04 A3001 RMK A01 T01311042  RH  030%=      5-min Rain = 0
KSW1 090341Z 17011KT 13/M04 A3001 RMK A01 T01311042  RH  030%=      5-min Rain = 0
KSW1 090342Z 17013KT 13/M04 A30 RMK A01 T01301042  RH  030%=      5-min Rain = 0
KSW1 090343Z 17012KT 13/M04 A30 RMK A01 T01301042  RH  030%=      5-min Rain = 0
KSW1 090344Z 17012KT 13/M04 A30 RMK A01 T01301042  RH  030%=      5-min Rain = 0
KSW1 090345Z 17012KT 13/M04 A30 RMK A01 T01301043  RH  030%=      5-min Rain = 0
KSW1 090346Z 17012KT 13/M04 A30 RMK A01 T01301043  RH  030%=      5-min Rain = 0
KSW1 090347Z 17013KT 13/M04 A30 RMK A01 T01301043  RH  030%=      5-min Rain = 0
KSW1 090348Z 17015KT 13/M04 A30 RMK A01 T01301042  RH  030%=      5-min Rain = 0
KSW1 090349Z 16014KT 13/M04 A30 RMK A01 T01301042  RH  030%=      5-min Rain = 0
KSW1 090350Z 17013KT 13/M04 A30 RMK A01 T01311042  RH  030%=      5-min Rain = 0
KSW1 090351Z 17012KT 13/M04 A30 RMK A01 T01311042  RH  030%=      5-min Rain = 0
KSW1 090352Z 17015KT 13/M04 A30 RMK A01 T01301041  RH  030%=      5-min Rain = 0
KSW1 090353Z 17013KT 13/M04 A30 RMK A01 T01301040  RH  030%=      5-min Rain = 0
KSW1 090354Z 17012KT 13/M04 A30 RMK A01 T01301040  RH  030%=      5-min Rain = 0
KSW1 090355Z 17013KT 13/M04 A30 RMK A01 T01301039  RH  031%=      5-min Rain = 0
KSW1 090356Z 17013KT 13/M04 A30 RMK A01 T01301039  RH  031%=      5-min Rain = 0
KSW1 090357Z 17013KT 13/M04 A30 RMK A01 T01301038  RH  031%=      5-min Rain = 0
KSW1 090358Z 17014KT 13/M04 A30 RMK A01 T01301037  RH  031%=      5-min Rain = 0
KSW1 090359Z 17013G18KT 13/M04 A30 RMK A01 T01301037  RH  031%=      5-min Rain = 0
KSW1 090400Z 17012KT 13/M04 A30 RMK A01 T01301036  RH  031%=      5-min Rain = 0
KSW1 090401Z 17014KT 13/M04 A30 RMK A01 T01301036  RH  031%=      5-min Rain = 0
KSW1 090402Z 17012KT 13/M04 A30 RMK A01 T01311035  RH  031%=      5-min Rain = 0
KSW1 090403Z 17014KT 13/M04 A30 RMK A01 T01301035  RH  032%=      5-min Rain = 0
KSW1 090404Z 17012KT 13/M03 A30 RMK A01 T01311034  RH  032%=      5-min Rain = 0
KSW1 090405Z 17012KT 13/M03 A30 RMK A01 T01301033  RH  032%=      5-min Rain = 0
KSW1 090406Z 17013KT 13/M03 A30 RMK A01 T01301033  RH  032%=      5-min Rain = 0
KSW1 090407Z 17013KT 13/M03 A30 RMK A01 T01291033  RH  032%=      5-min Rain = 0
KSW1 090408Z 16013KT 13/M03 A30 RMK A01 T01301032  RH  032%=      5-min Rain = 0
KSW1 090409Z 16013KT 13/M03 A30 RMK A01 T01301031  RH  032%=      5-min Rain = 0
KSW1 090410Z 16011KT 13/M03 A30 RMK A01 T01301031  RH  033%=      5-min Rain = 0
KSW1 090411Z 17011KT 13/M03 A30 RMK A01 T01291031  RH  033%=      5-min Rain = 0
KSW1 090412Z 17015KT 13/M03 A30 RMK A01 T01301029  RH  033%=      5-min Rain = 0
KSW1 090413Z 17014KT 13/M03 A30 RMK A01 T01301029  RH  033%=      5-min Rain = 0
KSW1 090414Z 17011KT 13/M03 A2999 RMK A01 T01311028  RH  033%=      5-min Rain = 0
KSW1 090415Z 17012KT 13/M03 A2999 RMK A01 T01311027  RH  033%=      5-min Rain = 0
KSW1 090416Z 17013KT 13/M03 A2999 RMK A01 T01301027  RH  033%=      5-min Rain = 0
KSW1 090417Z 17014KT 13/M03 A2999 RMK A01 T01311026  RH  034%=      5-min Rain = 0
KSW1 090418Z 17013KT 13/M03 A2999 RMK A01 T01311025  RH  034%=      5-min Rain = 0
KSW1 090419Z 17012KT 13/M03 A2999 RMK A01 T01311025  RH  034%=      5-min Rain = 0
KSW1 090420Z 17014KT 13/M03 A2999 RMK A01 T01301025  RH  034%=      5-min Rain = 0
KSW1 090421Z 16015KT 13/M03 A2999 RMK A01 T01311025  RH  034%=      5-min Rain = 0
KSW1 090422Z 16014G19KT 13/M02 A2999 RMK A01 T01311024  RH  034%=      5-min Rain = 0
KSW1 090423Z 17015KT 13/M02 A2999 RMK A01 T01311024  RH  034%=      5-min Rain = 0
KSW1 090424Z 16016KT 13/M02 A2999 RMK A01 T01311024  RH  034%=      5-min Rain = 0
KSW1 090425Z 16015G20KT 13/M02 A2999 RMK A01 T01311023  RH  034%=      5-min Rain = 0
KSW1 090426Z 17015KT 13/M02 A2999 RMK A01 T01311023  RH  034%=      5-min Rain = 0
KSW1 090427Z 16013KT 13/M02 A2999 RMK A01 T01311023  RH  034%=      5-min Rain = 0
KSW1 090428Z 16013KT 13/M02 A2999 RMK A01 T01311023  RH  034%=      5-min Rain = 0
KSW1 090429Z 16014KT 13/M02 A2999 RMK A01 T01291024  RH  034%=      5-min Rain = 0
KSW1 090430Z 17013KT 13/M02 A2999 RMK A01 T01291024  RH  034%=      5-min Rain = 0
KSW1 090431Z 17013KT 13/M02 A2999 RMK A01 T01291023  RH  035%=      5-min Rain = 0
KSW1 090432Z 16015KT 13/M02 A2999 RMK A01 T01281023  RH  035%=      5-min Rain = 0
KSW1 090433Z 16016G21KT 13/M02 A2999 RMK A01 T01281023  RH  035%=      5-min Rain = 0
KSW1 090434Z 16014KT 13/M02 A2999 RMK A01 T01291023  RH  035%=      5-min Rain = 0
KSW1 090435Z 17013KT 13/M02 A2999 RMK A01 T01291023  RH  035%=      5-min Rain = 0
KSW1 090436Z 16013KT 13/M02 A2999 RMK A01 T01281023  RH  035%=      5-min Rain = 0
KSW1 090437Z 17014KT 13/M02 A2999 RMK A01 T01281023  RH  035%=      5-min Rain = 0
KSW1 090438Z 17013KT 13/M02 A2999 RMK A01 T01271023  RH  035%=      5-min Rain = 0
KSW1 090439Z 17013KT 13/M02 A2999 RMK A01 T01271022  RH  035%=      5-min Rain = 0
KSW1 090440Z 17013KT 13/M02 A2999 RMK A01 T01271022  RH  035%=      5-min Rain = 0
KSW1 090441Z 17014G19KT 13/M02 A2999 RMK A01 T01271022  RH  035%=      5-min Rain = 0
KSW1 090442Z 17013KT 13/M02 A2999 RMK A01 T01281021  RH  036%=      5-min Rain = 0
KSW1 090443Z 17012KT 13/M02 A2999 RMK A01 T01271022  RH  035%=      5-min Rain = 0
KSW1 090444Z 17014KT 13/M02 A2999 RMK A01 T01271021  RH  036%=      5-min Rain = 0
KSW1 090445Z 17015G20KT 13/M02 A2999 RMK A01 T01271021  RH  036%=      5-min Rain = 0
KSW1 090446Z 17016KT 13/M02 A2999 RMK A01 T01271021  RH  036%=      5-min Rain = 0
KSW1 090447Z 17015KT 13/M02 A2999 RMK A01 T01281020  RH  036%=      5-min Rain = 0
KSW1 090448Z 17014KT 13/M02 A2999 RMK A01 T01271021  RH  036%=      5-min Rain = 0
KSW1 090449Z 17015KT 13/M02 A2999 RMK A01 T01281020  RH  036%=      5-min Rain = 0
KSW1 090450Z 17013KT 13/M02 A2999 RMK A01 T01271020  RH  036%=      5-min Rain = 0
KSW1 090451Z 17013KT 13/M02 A2999 RMK A01 T01271020  RH  036%=      5-min Rain = 0
KSW1 090452Z 17014KT 13/M02 A2999 RMK A01 T01271020  RH  036%=      5-min Rain = 0
KSW1 090453Z 17012KT 13/M02 A2999 RMK A01 T01271020  RH  036%=      5-min Rain = 0
KSW1 090454Z 17014KT 13/M02 A2999 RMK A01 T01261020  RH  036%=      5-min Rain = 0
KSW1 090455Z 17012KT 13/M02 A2999 RMK A01 T01261019  RH  036%=      5-min Rain = 0
KSW1 090456Z 17013KT 13/M02 A2999 RMK A01 T01261019  RH  036%=      5-min Rain = 0
KSW1 090457Z 16015KT 13/M02 A2999 RMK A01 T01261019  RH  036%=      5-min Rain = 0
KSW1 090458Z 17012KT 13/M02 A2999 RMK A01 T01261019  RH  037%=      5-min Rain = 0
KSW1 090459Z 17015KT 13/M02 A2999 RMK A01 T01261019  RH  037%=      5-min Rain = 0
KSW1 090500Z 17016KT 13/M02 A2999 RMK A01 T01261019  RH  037%=      5-min Rain = 0
KSW1 090501Z 17015KT 13/M02 A2999 RMK A01 T01271018  RH  036%=      5-min Rain = 0
KSW1 090502Z 17016KT 13/M02 A2999 RMK A01 T01271018  RH  036%=      5-min Rain = 0
KSW1 090503Z 17016KT 13/M02 A2999 RMK A01 T01271018  RH  036%=      5-min Rain = 0
KSW1 090504Z 17016KT 13/M02 A2999 RMK A01 T01271018  RH  037%=      5-min Rain = 0
KSW1 090505Z 17016KT 13/M02 A2998 RMK A01 T01271018  RH  036%=      5-min Rain = 0
KSW1 090506Z 17015KT 13/M02 A2999 RMK A01 T01271018  RH  036%=      5-min Rain = 0
KSW1 090507Z 17016KT 13/M02 A2998 RMK A01 T01271017  RH  037%=      5-min Rain = 0
KSW1 090508Z 17015KT 13/M02 A2998 RMK A01 T01271017  RH  037%=      5-min Rain = 0
KSW1 090509Z 17014G19KT 13/M02 A2998 RMK A01 T01271017  RH  037%=      5-min Rain = 0
KSW1 090510Z 17014G19KT 13/M02 A2998 RMK A01 T01261017  RH  037%=      5-min Rain = 0
KSW1 090511Z 17013KT 13/M02 A2998 RMK A01 T01261017  RH  037%=      5-min Rain = 0
KSW1 090512Z 17014KT 13/M02 A2998 RMK A01 T01261017  RH  037%=      5-min Rain = 0
KSW1 090513Z 17014KT 13/M02 A2998 RMK A01 T01261016  RH  037%=      5-min Rain = 0
KSW1 090514Z 17013KT 13/M02 A2998 RMK A01 T01261016  RH  037%=      5-min Rain = 0
KSW1 090515Z 17014KT 13/M02 A2998 RMK A01 T01261016  RH  037%=      5-min Rain = 0
KSW1 090516Z 17015KT 13/M02 A2998 RMK A01 T01251017  RH  037%=      5-min Rain = 0
KSW1 090517Z 17016KT 13/M02 A2998 RMK A01 T01251016  RH  037%=      5-min Rain = 0
KSW1 090518Z 17013KT 13/M02 A2998 RMK A01 T01261016  RH  037%=      5-min Rain = 0
KSW1 090519Z 17013KT 13/M02 A2998 RMK A01 T01251016  RH  038%=      5-min Rain = 0
KSW1 090520Z 17014KT 12/M02 A2998 RMK A01 T01241016  RH  038%=      5-min Rain = 0
KSW1 090521Z 17015KT 12/M02 A2997 RMK A01 T01241016  RH  038%=      5-min Rain = 0
KSW1 090522Z 17015KT 12/M02 A2997 RMK A01 T01241015  RH  038%=      5-min Rain = 0
KSW1 090523Z 17015KT 12/M02 A2997 RMK A01 T01241015  RH  038%=      5-min Rain = 0
KSW1 090524Z 17017KT 12/M02 A2997 RMK A01 T01241015  RH  038%=      5-min Rain = 0
KSW1 090525Z 17013KT 13/M01 A2997 RMK A01 T01251014  RH  038%=      5-min Rain = 0
KSW1 090526Z 17015KT 13/M01 A2997 RMK A01 T01251014  RH  038%=      5-min Rain = 0
KSW1 090527Z 17017KT 12/M01 A2997 RMK A01 T01241014  RH  038%=      5-min Rain = 0
KSW1 090528Z 17016G21KT 13/M01 A2997 RMK A01 T01251013  RH  039%=      5-min Rain = 0
KSW1 090529Z 17016KT 13/M01 A2997 RMK A01 T01251012  RH  039%=      5-min Rain = 0
KSW1 090530Z 17016KT 13/M01 A2997 RMK A01 T01261012  RH  038%=      5-min Rain = 0
KSW1 090531Z 17015KT 13/M01 A2997 RMK A01 T01261012  RH  039%=      5-min Rain = 0
KSW1 090532Z 17015G22KT 13/M01 A2996 RMK A01 T01261011  RH  039%=      5-min Rain = 0
KSW1 090533Z 17018G23KT 13/M01 A2996 RMK A01 T01251011  RH  039%=      5-min Rain = 0
KSW1 090534Z 17017G22KT 13/M01 A2996 RMK A01 T01261010  RH  039%=      5-min Rain = 0
KSW1 090535Z 17016G21KT 13/M01 A2996 RMK A01 T01271010  RH  039%=      5-min Rain = 0
KSW1 090536Z 17015KT 13/M01 A2996 RMK A01 T01261011  RH  039%=      5-min Rain = 0
KSW1 090537Z 17017KT 13/M01 A2996 RMK A01 T01251010  RH  039%=      5-min Rain = 0
KSW1 090538Z 17017KT 13/M01 A2996 RMK A01 T01251009  RH  039%=      5-min Rain = 0
KSW1 090539Z 17016G21KT 13/M01 A2996 RMK A01 T01261009  RH  039%=      5-min Rain = 0
KSW1 090540Z 17016KT 13/M01 A2996 RMK A01 T01261009  RH  039%=      5-min Rain = 0
KSW1 090541Z 17017KT 13/M01 A2996 RMK A01 T01261008  RH  040%=      5-min Rain = 0
KSW1 090542Z 17017KT 13/M01 A2996 RMK A01 T01251008  RH  040%=      5-min Rain = 0
KSW1 090543Z 17014KT 13/M01 A2996 RMK A01 T01261008  RH  040%=      5-min Rain = 0
KSW1 090544Z 17014KT 13/M01 A2996 RMK A01 T01251008  RH  040%=      5-min Rain = 0
KSW1 090545Z 17016KT 12/M01 A2996 RMK A01 T01241007  RH  040%=      5-min Rain = 0
KSW1 090546Z 17014G19KT 12/M01 A2996 RMK A01 T01241007  RH  040%=      5-min Rain = 0
KSW1 090547Z 17018KT 12/M01 A2996 RMK A01 T01241007  RH  040%=      5-min Rain = 0
KSW1 090548Z 17017KT 13/M01 A2996 RMK A01 T01251006  RH  040%=      5-min Rain = 0
KSW1 090549Z 17015KT 13/M01 A2996 RMK A01 T01261006  RH  040%=      5-min Rain = 0
KSW1 090550Z 17013KT 13/M01 A2996 RMK A01 T01251006  RH  040%=      5-min Rain = 0
KSW1 090551Z 17015KT 13/M01 A2996 RMK A01 T01251006  RH  040%=      5-min Rain = 0
KSW1 090552Z 17013G19KT 12/M01 A2996 RMK A01 T01241006  RH  041%=      5-min Rain = 0
KSW1 090553Z 17015KT 12/M01 A2996 RMK A01 T01241006  RH  041%=      5-min Rain = 0
KSW1 090554Z 17015KT 12/M01 A2995 RMK A01 T01241006  RH  041%=      5-min Rain = 0
KSW1 090555Z 17017KT 12/M01 A2995 RMK A01 T01241006  RH  041%=      5-min Rain = 0
KSW1 090556Z 17014KT 12/M01 A2995 RMK A01 T01241005  RH  041%=      5-min Rain = 0
KSW1 090557Z 17014KT 12/M01 A2995 RMK A01 T01241006  RH  041%=      5-min Rain = 0
KSW1 090558Z 17012KT 12/M01 A2995 RMK A01 T01241005  RH  041%=      5-min Rain = 0
KSW1 090559Z 17014KT 12/M01 A2995 RMK A01 T01231006  RH  041%=      5-min Rain = 0

Page generated in 0.1348 seconds.